<?xml version="1.0" encoding="UTF-8" standalone="no" ?>
<gpx xmlns="http://www.topografix.com/GPX/1/1" xmlns:xsi="http://www.w3.org/2001/XMLSchema-instance" xsi:schemaLocation="http://www.topografix.com/GPX/1/1 http://www.topografix.com/GPX/1/1/gpx.xsd" version="1.1" creator="VisuGPX - https://www.visugpx.com">
  <metadata>
    <name>rando du 12 septembre 2019</name>
  </metadata>
  <trk>
    <name><![CDATA[rando du 12 septembre 2019_1]]></name>
    <trkseg>
      <trkpt lat="45.70324" lon="5.74895">
        <ele>232.7</ele>
        <time>2019-09-12T06:53:39Z</time>
      </trkpt>
      <trkpt lat="45.70327" lon="5.74901">
        <ele>228.6</ele>
        <time>2019-09-12T06:54:11Z</time>
      </trkpt>
      <trkpt lat="45.70338" lon="5.74906">
        <ele>216.6</ele>
        <time>2019-09-12T06:59:23Z</time>
      </trkpt>
      <trkpt lat="45.70349" lon="5.74906">
        <ele>216.6</ele>
        <time>2019-09-12T06:59:39Z</time>
      </trkpt>
      <trkpt lat="45.70361" lon="5.74907">
        <ele>216.6</ele>
        <time>2019-09-12T06:59:55Z</time>
      </trkpt>
      <trkpt lat="45.70372" lon="5.74907">
        <ele>217</ele>
        <time>2019-09-12T07:00:11Z</time>
      </trkpt>
      <trkpt lat="45.70383" lon="5.74905">
        <ele>217.7</ele>
        <time>2019-09-12T07:00:27Z</time>
      </trkpt>
      <trkpt lat="45.70394" lon="5.749">
        <ele>218.6</ele>
        <time>2019-09-12T07:00:43Z</time>
      </trkpt>
      <trkpt lat="45.70405" lon="5.74894">
        <ele>219.9</ele>
        <time>2019-09-12T07:00:59Z</time>
      </trkpt>
      <trkpt lat="45.70409" lon="5.74884">
        <ele>221.3</ele>
        <time>2019-09-12T07:01:15Z</time>
      </trkpt>
      <trkpt lat="45.70411" lon="5.74877">
        <ele>222.1</ele>
        <time>2019-09-12T07:01:31Z</time>
      </trkpt>
      <trkpt lat="45.70413" lon="5.74871">
        <ele>223.6</ele>
        <time>2019-09-12T07:02:03Z</time>
      </trkpt>
      <trkpt lat="45.70414" lon="5.74864">
        <ele>225.7</ele>
        <time>2019-09-12T07:03:23Z</time>
      </trkpt>
      <trkpt lat="45.70414" lon="5.7485">
        <ele>224.4</ele>
        <time>2019-09-12T07:03:55Z</time>
      </trkpt>
      <trkpt lat="45.70412" lon="5.74841">
        <ele>223.5</ele>
        <time>2019-09-12T07:04:11Z</time>
      </trkpt>
      <trkpt lat="45.7041" lon="5.7483">
        <ele>223.2</ele>
        <time>2019-09-12T07:04:27Z</time>
      </trkpt>
      <trkpt lat="45.70409" lon="5.74816">
        <ele>222.8</ele>
        <time>2019-09-12T07:04:43Z</time>
      </trkpt>
      <trkpt lat="45.70403" lon="5.74799">
        <ele>223</ele>
        <time>2019-09-12T07:04:59Z</time>
      </trkpt>
      <trkpt lat="45.70401" lon="5.74783">
        <ele>223.7</ele>
        <time>2019-09-12T07:05:15Z</time>
      </trkpt>
      <trkpt lat="45.70399" lon="5.74774">
        <ele>224.7</ele>
        <time>2019-09-12T07:05:31Z</time>
      </trkpt>
      <trkpt lat="45.70397" lon="5.74768">
        <ele>225.9</ele>
        <time>2019-09-12T07:05:47Z</time>
      </trkpt>
      <trkpt lat="45.70394" lon="5.74751">
        <ele>228.1</ele>
        <time>2019-09-12T07:06:19Z</time>
      </trkpt>
      <trkpt lat="45.70399" lon="5.74739">
        <ele>229.4</ele>
        <time>2019-09-12T07:06:35Z</time>
      </trkpt>
      <trkpt lat="45.70397" lon="5.74721">
        <ele>230.9</ele>
        <time>2019-09-12T07:06:51Z</time>
      </trkpt>
      <trkpt lat="45.70394" lon="5.74706">
        <ele>232.6</ele>
        <time>2019-09-12T07:07:06Z</time>
      </trkpt>
      <trkpt lat="45.70389" lon="5.74688">
        <ele>234.6</ele>
        <time>2019-09-12T07:07:22Z</time>
      </trkpt>
      <trkpt lat="45.7038" lon="5.7467">
        <ele>237</ele>
        <time>2019-09-12T07:07:38Z</time>
      </trkpt>
      <trkpt lat="45.70373" lon="5.74654">
        <ele>239.3</ele>
        <time>2019-09-12T07:07:54Z</time>
      </trkpt>
      <trkpt lat="45.70368" lon="5.7464">
        <ele>241.4</ele>
        <time>2019-09-12T07:08:09Z</time>
      </trkpt>
      <trkpt lat="45.70364" lon="5.74623">
        <ele>243.6</ele>
        <time>2019-09-12T07:08:25Z</time>
      </trkpt>
      <trkpt lat="45.70362" lon="5.74605">
        <ele>246.1</ele>
        <time>2019-09-12T07:08:41Z</time>
      </trkpt>
      <trkpt lat="45.70362" lon="5.74592">
        <ele>248.1</ele>
        <time>2019-09-12T07:08:56Z</time>
      </trkpt>
      <trkpt lat="45.70358" lon="5.74575">
        <ele>250.1</ele>
        <time>2019-09-12T07:09:12Z</time>
      </trkpt>
      <trkpt lat="45.70357" lon="5.7456">
        <ele>252</ele>
        <time>2019-09-12T07:09:28Z</time>
      </trkpt>
      <trkpt lat="45.70353" lon="5.74543">
        <ele>254.4</ele>
        <time>2019-09-12T07:09:44Z</time>
      </trkpt>
      <trkpt lat="45.70349" lon="5.74527">
        <ele>256.5</ele>
        <time>2019-09-12T07:09:59Z</time>
      </trkpt>
      <trkpt lat="45.70347" lon="5.74512">
        <ele>258.4</ele>
        <time>2019-09-12T07:10:15Z</time>
      </trkpt>
      <trkpt lat="45.70345" lon="5.74499">
        <ele>260.3</ele>
        <time>2019-09-12T07:10:31Z</time>
      </trkpt>
      <trkpt lat="45.70344" lon="5.74485">
        <ele>262.2</ele>
        <time>2019-09-12T07:10:47Z</time>
      </trkpt>
      <trkpt lat="45.70345" lon="5.74472">
        <ele>263.9</ele>
        <time>2019-09-12T07:11:02Z</time>
      </trkpt>
      <trkpt lat="45.70349" lon="5.74455">
        <ele>265.5</ele>
        <time>2019-09-12T07:11:18Z</time>
      </trkpt>
      <trkpt lat="45.70353" lon="5.74437">
        <ele>267</ele>
        <time>2019-09-12T07:11:34Z</time>
      </trkpt>
      <trkpt lat="45.70358" lon="5.74423">
        <ele>268.4</ele>
        <time>2019-09-12T07:11:50Z</time>
      </trkpt>
      <trkpt lat="45.70362" lon="5.74407">
        <ele>269.6</ele>
        <time>2019-09-12T07:12:05Z</time>
      </trkpt>
      <trkpt lat="45.70365" lon="5.74389">
        <ele>270.5</ele>
        <time>2019-09-12T07:12:21Z</time>
      </trkpt>
      <trkpt lat="45.70366" lon="5.74375">
        <ele>271.4</ele>
        <time>2019-09-12T07:12:37Z</time>
      </trkpt>
      <trkpt lat="45.70365" lon="5.74358">
        <ele>272.5</ele>
        <time>2019-09-12T07:12:53Z</time>
      </trkpt>
      <trkpt lat="45.70363" lon="5.74342">
        <ele>273.5</ele>
        <time>2019-09-12T07:13:08Z</time>
      </trkpt>
      <trkpt lat="45.70362" lon="5.74324">
        <ele>274.7</ele>
        <time>2019-09-12T07:13:24Z</time>
      </trkpt>
      <trkpt lat="45.70362" lon="5.74307">
        <ele>275.9</ele>
        <time>2019-09-12T07:13:40Z</time>
      </trkpt>
      <trkpt lat="45.70365" lon="5.74291">
        <ele>277.4</ele>
        <time>2019-09-12T07:13:56Z</time>
      </trkpt>
      <trkpt lat="45.70365" lon="5.74274">
        <ele>279</ele>
        <time>2019-09-12T07:14:11Z</time>
      </trkpt>
      <trkpt lat="45.70365" lon="5.74258">
        <ele>280.4</ele>
        <time>2019-09-12T07:14:27Z</time>
      </trkpt>
      <trkpt lat="45.70364" lon="5.74241">
        <ele>282</ele>
        <time>2019-09-12T07:14:43Z</time>
      </trkpt>
      <trkpt lat="45.70362" lon="5.74223">
        <ele>283.5</ele>
        <time>2019-09-12T07:14:59Z</time>
      </trkpt>
      <trkpt lat="45.70361" lon="5.74209">
        <ele>284.9</ele>
        <time>2019-09-12T07:15:14Z</time>
      </trkpt>
      <trkpt lat="45.70359" lon="5.74196">
        <ele>286.1</ele>
        <time>2019-09-12T07:15:30Z</time>
      </trkpt>
      <trkpt lat="45.70355" lon="5.7418">
        <ele>287.6</ele>
        <time>2019-09-12T07:15:46Z</time>
      </trkpt>
      <trkpt lat="45.7035" lon="5.74166">
        <ele>288.6</ele>
        <time>2019-09-12T07:16:02Z</time>
      </trkpt>
      <trkpt lat="45.70347" lon="5.74153">
        <ele>289.5</ele>
        <time>2019-09-12T07:16:17Z</time>
      </trkpt>
      <trkpt lat="45.70342" lon="5.74139">
        <ele>290.9</ele>
        <time>2019-09-12T07:16:33Z</time>
      </trkpt>
      <trkpt lat="45.70338" lon="5.74125">
        <ele>292.4</ele>
        <time>2019-09-12T07:16:49Z</time>
      </trkpt>
      <trkpt lat="45.70326" lon="5.74114">
        <ele>293.5</ele>
        <time>2019-09-12T07:17:05Z</time>
      </trkpt>
      <trkpt lat="45.70317" lon="5.74107">
        <ele>295</ele>
        <time>2019-09-12T07:17:20Z</time>
      </trkpt>
      <trkpt lat="45.70304" lon="5.741">
        <ele>296</ele>
        <time>2019-09-12T07:17:36Z</time>
      </trkpt>
      <trkpt lat="45.70292" lon="5.74092">
        <ele>297.1</ele>
        <time>2019-09-12T07:17:52Z</time>
      </trkpt>
      <trkpt lat="45.70276" lon="5.74081">
        <ele>298.3</ele>
        <time>2019-09-12T07:18:08Z</time>
      </trkpt>
      <trkpt lat="45.70264" lon="5.74074">
        <ele>299.5</ele>
        <time>2019-09-12T07:18:23Z</time>
      </trkpt>
      <trkpt lat="45.7025" lon="5.7407">
        <ele>300.7</ele>
        <time>2019-09-12T07:18:39Z</time>
      </trkpt>
      <trkpt lat="45.70235" lon="5.74063">
        <ele>301.3</ele>
        <time>2019-09-12T07:18:55Z</time>
      </trkpt>
      <trkpt lat="45.70223" lon="5.7406">
        <ele>301.1</ele>
        <time>2019-09-12T07:19:11Z</time>
      </trkpt>
      <trkpt lat="45.70209" lon="5.74057">
        <ele>301.8</ele>
        <time>2019-09-12T07:19:26Z</time>
      </trkpt>
      <trkpt lat="45.70195" lon="5.74048">
        <ele>302.7</ele>
        <time>2019-09-12T07:19:42Z</time>
      </trkpt>
      <trkpt lat="45.70186" lon="5.74043">
        <ele>302.1</ele>
        <time>2019-09-12T07:19:58Z</time>
      </trkpt>
      <trkpt lat="45.70177" lon="5.74032">
        <ele>302.7</ele>
        <time>2019-09-12T07:20:14Z</time>
      </trkpt>
      <trkpt lat="45.70168" lon="5.74022">
        <ele>303.7</ele>
        <time>2019-09-12T07:20:29Z</time>
      </trkpt>
      <trkpt lat="45.70159" lon="5.74012">
        <ele>304.2</ele>
        <time>2019-09-12T07:20:45Z</time>
      </trkpt>
      <trkpt lat="45.70154" lon="5.74007">
        <ele>304.4</ele>
        <time>2019-09-12T07:21:01Z</time>
      </trkpt>
      <trkpt lat="45.70143" lon="5.73993">
        <ele>303.7</ele>
        <time>2019-09-12T07:21:32Z</time>
      </trkpt>
      <trkpt lat="45.70139" lon="5.73989">
        <ele>303.7</ele>
        <time>2019-09-12T07:21:47Z</time>
      </trkpt>
      <trkpt lat="45.70135" lon="5.73981">
        <ele>304.4</ele>
        <time>2019-09-12T07:23:22Z</time>
      </trkpt>
      <trkpt lat="45.70134" lon="5.73972">
        <ele>304.9</ele>
        <time>2019-09-12T07:23:38Z</time>
      </trkpt>
      <trkpt lat="45.70133" lon="5.73959">
        <ele>305.2</ele>
        <time>2019-09-12T07:23:54Z</time>
      </trkpt>
      <trkpt lat="45.70129" lon="5.73946">
        <ele>305.7</ele>
        <time>2019-09-12T07:24:10Z</time>
      </trkpt>
      <trkpt lat="45.70124" lon="5.73933">
        <ele>306.3</ele>
        <time>2019-09-12T07:24:25Z</time>
      </trkpt>
      <trkpt lat="45.70121" lon="5.73921">
        <ele>307.5</ele>
        <time>2019-09-12T07:24:41Z</time>
      </trkpt>
      <trkpt lat="45.70116" lon="5.73905">
        <ele>308.8</ele>
        <time>2019-09-12T07:24:57Z</time>
      </trkpt>
      <trkpt lat="45.70115" lon="5.73892">
        <ele>309.9</ele>
        <time>2019-09-12T07:25:13Z</time>
      </trkpt>
      <trkpt lat="45.70116" lon="5.73882">
        <ele>311.2</ele>
        <time>2019-09-12T07:25:29Z</time>
      </trkpt>
      <trkpt lat="45.70121" lon="5.73874">
        <ele>312.8</ele>
        <time>2019-09-12T07:25:44Z</time>
      </trkpt>
      <trkpt lat="45.70126" lon="5.73865">
        <ele>314</ele>
        <time>2019-09-12T07:26:00Z</time>
      </trkpt>
      <trkpt lat="45.70132" lon="5.73858">
        <ele>314.7</ele>
        <time>2019-09-12T07:26:16Z</time>
      </trkpt>
      <trkpt lat="45.70141" lon="5.73856">
        <ele>315.7</ele>
        <time>2019-09-12T07:26:32Z</time>
      </trkpt>
      <trkpt lat="45.70152" lon="5.73856">
        <ele>316.6</ele>
        <time>2019-09-12T07:26:48Z</time>
      </trkpt>
      <trkpt lat="45.70164" lon="5.73855">
        <ele>317.4</ele>
        <time>2019-09-12T07:27:04Z</time>
      </trkpt>
      <trkpt lat="45.70177" lon="5.73849">
        <ele>318.1</ele>
        <time>2019-09-12T07:27:20Z</time>
      </trkpt>
      <trkpt lat="45.70192" lon="5.73845">
        <ele>318.4</ele>
        <time>2019-09-12T07:27:36Z</time>
      </trkpt>
      <trkpt lat="45.70205" lon="5.7384">
        <ele>318.8</ele>
        <time>2019-09-12T07:27:52Z</time>
      </trkpt>
      <trkpt lat="45.70216" lon="5.7383">
        <ele>319.3</ele>
        <time>2019-09-12T07:28:08Z</time>
      </trkpt>
      <trkpt lat="45.70225" lon="5.73816">
        <ele>319.3</ele>
        <time>2019-09-12T07:28:24Z</time>
      </trkpt>
      <trkpt lat="45.70231" lon="5.73802">
        <ele>319.2</ele>
        <time>2019-09-12T07:28:39Z</time>
      </trkpt>
      <trkpt lat="45.70233" lon="5.73784">
        <ele>320</ele>
        <time>2019-09-12T07:28:56Z</time>
      </trkpt>
      <trkpt lat="45.70236" lon="5.73763">
        <ele>320.8</ele>
        <time>2019-09-12T07:29:11Z</time>
      </trkpt>
      <trkpt lat="45.70238" lon="5.73746">
        <ele>321.1</ele>
        <time>2019-09-12T07:29:27Z</time>
      </trkpt>
      <trkpt lat="45.70242" lon="5.73731">
        <ele>321.3</ele>
        <time>2019-09-12T07:29:43Z</time>
      </trkpt>
      <trkpt lat="45.70242" lon="5.73717">
        <ele>321.4</ele>
        <time>2019-09-12T07:29:59Z</time>
      </trkpt>
      <trkpt lat="45.70242" lon="5.73704">
        <ele>321.5</ele>
        <time>2019-09-12T07:30:14Z</time>
      </trkpt>
      <trkpt lat="45.70242" lon="5.73688">
        <ele>321.6</ele>
        <time>2019-09-12T07:30:30Z</time>
      </trkpt>
      <trkpt lat="45.70243" lon="5.73673">
        <ele>321.6</ele>
        <time>2019-09-12T07:30:46Z</time>
      </trkpt>
      <trkpt lat="45.70243" lon="5.73657">
        <ele>321.8</ele>
        <time>2019-09-12T07:31:02Z</time>
      </trkpt>
      <trkpt lat="45.70243" lon="5.73643">
        <ele>322</ele>
        <time>2019-09-12T07:31:18Z</time>
      </trkpt>
      <trkpt lat="45.70241" lon="5.73628">
        <ele>322.3</ele>
        <time>2019-09-12T07:31:34Z</time>
      </trkpt>
      <trkpt lat="45.70239" lon="5.73615">
        <ele>322.7</ele>
        <time>2019-09-12T07:31:50Z</time>
      </trkpt>
      <trkpt lat="45.70233" lon="5.73599">
        <ele>323.2</ele>
        <time>2019-09-12T07:32:06Z</time>
      </trkpt>
      <trkpt lat="45.70229" lon="5.73586">
        <ele>323.7</ele>
        <time>2019-09-12T07:32:21Z</time>
      </trkpt>
      <trkpt lat="45.70225" lon="5.73568">
        <ele>324.4</ele>
        <time>2019-09-12T07:32:36Z</time>
      </trkpt>
      <trkpt lat="45.70226" lon="5.73554">
        <ele>324.8</ele>
        <time>2019-09-12T07:32:52Z</time>
      </trkpt>
      <trkpt lat="45.70228" lon="5.7354">
        <ele>325.1</ele>
        <time>2019-09-12T07:33:08Z</time>
      </trkpt>
      <trkpt lat="45.70228" lon="5.73528">
        <ele>325.5</ele>
        <time>2019-09-12T07:33:23Z</time>
      </trkpt>
      <trkpt lat="45.70223" lon="5.73515">
        <ele>326.1</ele>
        <time>2019-09-12T07:33:39Z</time>
      </trkpt>
      <trkpt lat="45.7022" lon="5.73502">
        <ele>326.7</ele>
        <time>2019-09-12T07:33:55Z</time>
      </trkpt>
      <trkpt lat="45.70216" lon="5.7349">
        <ele>326.9</ele>
        <time>2019-09-12T07:34:11Z</time>
      </trkpt>
      <trkpt lat="45.70213" lon="5.73478">
        <ele>327.5</ele>
        <time>2019-09-12T07:34:26Z</time>
      </trkpt>
      <trkpt lat="45.70212" lon="5.73468">
        <ele>328</ele>
        <time>2019-09-12T07:34:42Z</time>
      </trkpt>
      <trkpt lat="45.70204" lon="5.7345">
        <ele>328.7</ele>
        <time>2019-09-12T07:35:13Z</time>
      </trkpt>
      <trkpt lat="45.70201" lon="5.7344">
        <ele>329.8</ele>
        <time>2019-09-12T07:35:29Z</time>
      </trkpt>
      <trkpt lat="45.70196" lon="5.73433">
        <ele>330.8</ele>
        <time>2019-09-12T07:35:45Z</time>
      </trkpt>
      <trkpt lat="45.70188" lon="5.73428">
        <ele>332.2</ele>
        <time>2019-09-12T07:36:00Z</time>
      </trkpt>
      <trkpt lat="45.70183" lon="5.73426">
        <ele>333.7</ele>
        <time>2019-09-12T07:36:16Z</time>
      </trkpt>
      <trkpt lat="45.70176" lon="5.73421">
        <ele>335.8</ele>
        <time>2019-09-12T07:36:32Z</time>
      </trkpt>
      <trkpt lat="45.70169" lon="5.73414">
        <ele>337.9</ele>
        <time>2019-09-12T07:36:47Z</time>
      </trkpt>
      <trkpt lat="45.70165" lon="5.73408">
        <ele>339.8</ele>
        <time>2019-09-12T07:37:03Z</time>
      </trkpt>
      <trkpt lat="45.70158" lon="5.73397">
        <ele>341.6</ele>
        <time>2019-09-12T07:37:19Z</time>
      </trkpt>
      <trkpt lat="45.70154" lon="5.7339">
        <ele>343.7</ele>
        <time>2019-09-12T07:37:35Z</time>
      </trkpt>
      <trkpt lat="45.70149" lon="5.73382">
        <ele>345.6</ele>
        <time>2019-09-12T07:37:51Z</time>
      </trkpt>
      <trkpt lat="45.70144" lon="5.73374">
        <ele>347.4</ele>
        <time>2019-09-12T07:38:06Z</time>
      </trkpt>
      <trkpt lat="45.70138" lon="5.73364">
        <ele>349.6</ele>
        <time>2019-09-12T07:38:22Z</time>
      </trkpt>
      <trkpt lat="45.70133" lon="5.73354">
        <ele>351.5</ele>
        <time>2019-09-12T07:38:38Z</time>
      </trkpt>
      <trkpt lat="45.70128" lon="5.73344">
        <ele>353.2</ele>
        <time>2019-09-12T07:38:54Z</time>
      </trkpt>
      <trkpt lat="45.70126" lon="5.73335">
        <ele>354.6</ele>
        <time>2019-09-12T07:39:10Z</time>
      </trkpt>
      <trkpt lat="45.70126" lon="5.73323">
        <ele>356</ele>
        <time>2019-09-12T07:39:26Z</time>
      </trkpt>
      <trkpt lat="45.70127" lon="5.73311">
        <ele>357.3</ele>
        <time>2019-09-12T07:39:41Z</time>
      </trkpt>
      <trkpt lat="45.70125" lon="5.73297">
        <ele>358.7</ele>
        <time>2019-09-12T07:39:57Z</time>
      </trkpt>
      <trkpt lat="45.7012" lon="5.73286">
        <ele>360.4</ele>
        <time>2019-09-12T07:40:13Z</time>
      </trkpt>
      <trkpt lat="45.70114" lon="5.73283">
        <ele>362.1</ele>
        <time>2019-09-12T07:40:29Z</time>
      </trkpt>
      <trkpt lat="45.70106" lon="5.73284">
        <ele>364.1</ele>
        <time>2019-09-12T07:40:44Z</time>
      </trkpt>
      <trkpt lat="45.70102" lon="5.73288">
        <ele>365.6</ele>
        <time>2019-09-12T07:41:00Z</time>
      </trkpt>
      <trkpt lat="45.70096" lon="5.73296">
        <ele>367.3</ele>
        <time>2019-09-12T07:41:16Z</time>
      </trkpt>
      <trkpt lat="45.70092" lon="5.73306">
        <ele>368.9</ele>
        <time>2019-09-12T07:41:31Z</time>
      </trkpt>
      <trkpt lat="45.70087" lon="5.7331">
        <ele>370.5</ele>
        <time>2019-09-12T07:41:47Z</time>
      </trkpt>
      <trkpt lat="45.7008" lon="5.7331">
        <ele>372.6</ele>
        <time>2019-09-12T07:42:03Z</time>
      </trkpt>
      <trkpt lat="45.70073" lon="5.73309">
        <ele>374.6</ele>
        <time>2019-09-12T07:42:18Z</time>
      </trkpt>
      <trkpt lat="45.70066" lon="5.73307">
        <ele>376.4</ele>
        <time>2019-09-12T07:42:35Z</time>
      </trkpt>
      <trkpt lat="45.70055" lon="5.73307">
        <ele>378.5</ele>
        <time>2019-09-12T07:42:50Z</time>
      </trkpt>
      <trkpt lat="45.70043" lon="5.73309">
        <ele>380.3</ele>
        <time>2019-09-12T07:43:06Z</time>
      </trkpt>
      <trkpt lat="45.70033" lon="5.73315">
        <ele>382.5</ele>
        <time>2019-09-12T07:43:22Z</time>
      </trkpt>
      <trkpt lat="45.70022" lon="5.73314">
        <ele>384.3</ele>
        <time>2019-09-12T07:43:38Z</time>
      </trkpt>
      <trkpt lat="45.70017" lon="5.73311">
        <ele>385.3</ele>
        <time>2019-09-12T07:43:54Z</time>
      </trkpt>
      <trkpt lat="45.70019" lon="5.73303">
        <ele>388.5</ele>
        <time>2019-09-12T07:44:26Z</time>
      </trkpt>
      <trkpt lat="45.70024" lon="5.73299">
        <ele>390.3</ele>
        <time>2019-09-12T07:44:42Z</time>
      </trkpt>
      <trkpt lat="45.7003" lon="5.73288">
        <ele>391.6</ele>
        <time>2019-09-12T07:44:58Z</time>
      </trkpt>
      <trkpt lat="45.70038" lon="5.7328">
        <ele>393.2</ele>
        <time>2019-09-12T07:45:14Z</time>
      </trkpt>
      <trkpt lat="45.70044" lon="5.73268">
        <ele>394.9</ele>
        <time>2019-09-12T07:45:30Z</time>
      </trkpt>
      <trkpt lat="45.70052" lon="5.73255">
        <ele>396.9</ele>
        <time>2019-09-12T07:45:46Z</time>
      </trkpt>
      <trkpt lat="45.7006" lon="5.73245">
        <ele>399</ele>
        <time>2019-09-12T07:46:02Z</time>
      </trkpt>
      <trkpt lat="45.70067" lon="5.73233">
        <ele>401.1</ele>
        <time>2019-09-12T07:46:18Z</time>
      </trkpt>
      <trkpt lat="45.70075" lon="5.73223">
        <ele>403.1</ele>
        <time>2019-09-12T07:46:34Z</time>
      </trkpt>
      <trkpt lat="45.70083" lon="5.73212">
        <ele>405.4</ele>
        <time>2019-09-12T07:46:50Z</time>
      </trkpt>
      <trkpt lat="45.70092" lon="5.73202">
        <ele>407.1</ele>
        <time>2019-09-12T07:47:06Z</time>
      </trkpt>
      <trkpt lat="45.701" lon="5.73187">
        <ele>408.5</ele>
        <time>2019-09-12T07:47:22Z</time>
      </trkpt>
      <trkpt lat="45.70107" lon="5.73174">
        <ele>409.2</ele>
        <time>2019-09-12T07:47:38Z</time>
      </trkpt>
      <trkpt lat="45.70112" lon="5.7316">
        <ele>410.5</ele>
        <time>2019-09-12T07:47:54Z</time>
      </trkpt>
      <trkpt lat="45.70118" lon="5.73145">
        <ele>411.8</ele>
        <time>2019-09-12T07:48:10Z</time>
      </trkpt>
      <trkpt lat="45.70121" lon="5.73128">
        <ele>413.1</ele>
        <time>2019-09-12T07:48:26Z</time>
      </trkpt>
      <trkpt lat="45.70127" lon="5.73111">
        <ele>414.1</ele>
        <time>2019-09-12T07:48:42Z</time>
      </trkpt>
      <trkpt lat="45.70131" lon="5.73095">
        <ele>415.5</ele>
        <time>2019-09-12T07:48:58Z</time>
      </trkpt>
      <trkpt lat="45.70136" lon="5.73076">
        <ele>417.2</ele>
        <time>2019-09-12T07:49:14Z</time>
      </trkpt>
      <trkpt lat="45.70142" lon="5.73058">
        <ele>418.9</ele>
        <time>2019-09-12T07:49:30Z</time>
      </trkpt>
      <trkpt lat="45.7015" lon="5.73042">
        <ele>420.4</ele>
        <time>2019-09-12T07:49:46Z</time>
      </trkpt>
      <trkpt lat="45.70159" lon="5.73022">
        <ele>421.5</ele>
        <time>2019-09-12T07:50:02Z</time>
      </trkpt>
      <trkpt lat="45.70167" lon="5.73005">
        <ele>422.4</ele>
        <time>2019-09-12T07:50:18Z</time>
      </trkpt>
      <trkpt lat="45.70175" lon="5.72991">
        <ele>423.2</ele>
        <time>2019-09-12T07:50:34Z</time>
      </trkpt>
      <trkpt lat="45.70184" lon="5.72979">
        <ele>423.5</ele>
        <time>2019-09-12T07:50:50Z</time>
      </trkpt>
      <trkpt lat="45.70191" lon="5.72964">
        <ele>423.3</ele>
        <time>2019-09-12T07:51:06Z</time>
      </trkpt>
      <trkpt lat="45.70198" lon="5.7295">
        <ele>423.7</ele>
        <time>2019-09-12T07:51:22Z</time>
      </trkpt>
      <trkpt lat="45.70205" lon="5.72934">
        <ele>423.9</ele>
        <time>2019-09-12T07:51:38Z</time>
      </trkpt>
      <trkpt lat="45.70212" lon="5.72923">
        <ele>423.9</ele>
        <time>2019-09-12T07:51:53Z</time>
      </trkpt>
      <trkpt lat="45.70222" lon="5.72914">
        <ele>424.3</ele>
        <time>2019-09-12T07:52:09Z</time>
      </trkpt>
      <trkpt lat="45.70233" lon="5.72903">
        <ele>424.4</ele>
        <time>2019-09-12T07:52:25Z</time>
      </trkpt>
      <trkpt lat="45.70242" lon="5.72894">
        <ele>423.9</ele>
        <time>2019-09-12T07:52:41Z</time>
      </trkpt>
      <trkpt lat="45.70253" lon="5.72886">
        <ele>423.7</ele>
        <time>2019-09-12T07:52:57Z</time>
      </trkpt>
      <trkpt lat="45.70265" lon="5.72881">
        <ele>423.8</ele>
        <time>2019-09-12T07:53:13Z</time>
      </trkpt>
      <trkpt lat="45.70277" lon="5.7287">
        <ele>423.9</ele>
        <time>2019-09-12T07:53:29Z</time>
      </trkpt>
      <trkpt lat="45.70287" lon="5.72859">
        <ele>423.9</ele>
        <time>2019-09-12T07:53:45Z</time>
      </trkpt>
      <trkpt lat="45.70296" lon="5.72847">
        <ele>423.8</ele>
        <time>2019-09-12T07:54:01Z</time>
      </trkpt>
      <trkpt lat="45.70305" lon="5.72835">
        <ele>424.1</ele>
        <time>2019-09-12T07:54:17Z</time>
      </trkpt>
      <trkpt lat="45.70315" lon="5.72825">
        <ele>424.4</ele>
        <time>2019-09-12T07:54:33Z</time>
      </trkpt>
      <trkpt lat="45.70324" lon="5.72815">
        <ele>424.7</ele>
        <time>2019-09-12T07:54:49Z</time>
      </trkpt>
      <trkpt lat="45.70333" lon="5.72801">
        <ele>424.9</ele>
        <time>2019-09-12T07:55:05Z</time>
      </trkpt>
      <trkpt lat="45.70338" lon="5.72785">
        <ele>425.1</ele>
        <time>2019-09-12T07:55:21Z</time>
      </trkpt>
      <trkpt lat="45.70346" lon="5.72769">
        <ele>425.1</ele>
        <time>2019-09-12T07:55:37Z</time>
      </trkpt>
      <trkpt lat="45.70352" lon="5.72751">
        <ele>424.9</ele>
        <time>2019-09-12T07:55:53Z</time>
      </trkpt>
      <trkpt lat="45.70356" lon="5.72732">
        <ele>424.3</ele>
        <time>2019-09-12T07:56:09Z</time>
      </trkpt>
      <trkpt lat="45.70358" lon="5.72716">
        <ele>423.6</ele>
        <time>2019-09-12T07:56:25Z</time>
      </trkpt>
      <trkpt lat="45.70361" lon="5.727">
        <ele>422.7</ele>
        <time>2019-09-12T07:56:41Z</time>
      </trkpt>
      <trkpt lat="45.70362" lon="5.72682">
        <ele>421.8</ele>
        <time>2019-09-12T07:56:57Z</time>
      </trkpt>
      <trkpt lat="45.70364" lon="5.72664">
        <ele>420.8</ele>
        <time>2019-09-12T07:57:13Z</time>
      </trkpt>
      <trkpt lat="45.70363" lon="5.72643">
        <ele>420.1</ele>
        <time>2019-09-12T07:57:29Z</time>
      </trkpt>
      <trkpt lat="45.7036" lon="5.72626">
        <ele>419.7</ele>
        <time>2019-09-12T07:57:45Z</time>
      </trkpt>
      <trkpt lat="45.70357" lon="5.72612">
        <ele>419.5</ele>
        <time>2019-09-12T07:58:01Z</time>
      </trkpt>
      <trkpt lat="45.70352" lon="5.72599">
        <ele>419.5</ele>
        <time>2019-09-12T07:58:17Z</time>
      </trkpt>
      <trkpt lat="45.70344" lon="5.7259">
        <ele>419.6</ele>
        <time>2019-09-12T07:58:33Z</time>
      </trkpt>
      <trkpt lat="45.70338" lon="5.7258">
        <ele>419.6</ele>
        <time>2019-09-12T07:58:49Z</time>
      </trkpt>
      <trkpt lat="45.70331" lon="5.72568">
        <ele>419.6</ele>
        <time>2019-09-12T07:59:05Z</time>
      </trkpt>
      <trkpt lat="45.70326" lon="5.72561">
        <ele>419.7</ele>
        <time>2019-09-12T07:59:21Z</time>
      </trkpt>
      <trkpt lat="45.70325" lon="5.72552">
        <ele>421</ele>
        <time>2019-09-12T07:59:53Z</time>
      </trkpt>
      <trkpt lat="45.70329" lon="5.72544">
        <ele>422</ele>
        <time>2019-09-12T08:00:09Z</time>
      </trkpt>
      <trkpt lat="45.70339" lon="5.7253">
        <ele>422.7</ele>
        <time>2019-09-12T08:00:41Z</time>
      </trkpt>
      <trkpt lat="45.70344" lon="5.72523">
        <ele>423.1</ele>
        <time>2019-09-12T08:00:56Z</time>
      </trkpt>
      <trkpt lat="45.70349" lon="5.72516">
        <ele>423.6</ele>
        <time>2019-09-12T08:01:28Z</time>
      </trkpt>
      <trkpt lat="45.70351" lon="5.72511">
        <ele>424.1</ele>
        <time>2019-09-12T08:05:28Z</time>
      </trkpt>
      <trkpt lat="45.70346" lon="5.72513">
        <ele>424.8</ele>
        <time>2019-09-12T08:05:44Z</time>
      </trkpt>
      <trkpt lat="45.70342" lon="5.72516">
        <ele>425.1</ele>
        <time>2019-09-12T08:06:00Z</time>
      </trkpt>
      <trkpt lat="45.70336" lon="5.72522">
        <ele>425.2</ele>
        <time>2019-09-12T08:06:16Z</time>
      </trkpt>
      <trkpt lat="45.70331" lon="5.72529">
        <ele>425</ele>
        <time>2019-09-12T08:06:32Z</time>
      </trkpt>
      <trkpt lat="45.7032" lon="5.72529">
        <ele>424.6</ele>
        <time>2019-09-12T08:07:04Z</time>
      </trkpt>
      <trkpt lat="45.70309" lon="5.72526">
        <ele>424.4</ele>
        <time>2019-09-12T08:07:20Z</time>
      </trkpt>
      <trkpt lat="45.70299" lon="5.72524">
        <ele>424.1</ele>
        <time>2019-09-12T08:07:36Z</time>
      </trkpt>
      <trkpt lat="45.70287" lon="5.72516">
        <ele>424.1</ele>
        <time>2019-09-12T08:07:52Z</time>
      </trkpt>
      <trkpt lat="45.70278" lon="5.72505">
        <ele>424.4</ele>
        <time>2019-09-12T08:08:08Z</time>
      </trkpt>
      <trkpt lat="45.70268" lon="5.72491">
        <ele>425</ele>
        <time>2019-09-12T08:08:24Z</time>
      </trkpt>
      <trkpt lat="45.70261" lon="5.72477">
        <ele>425.8</ele>
        <time>2019-09-12T08:08:40Z</time>
      </trkpt>
      <trkpt lat="45.70252" lon="5.72464">
        <ele>426.6</ele>
        <time>2019-09-12T08:08:56Z</time>
      </trkpt>
      <trkpt lat="45.70244" lon="5.72451">
        <ele>427.5</ele>
        <time>2019-09-12T08:09:12Z</time>
      </trkpt>
      <trkpt lat="45.70238" lon="5.72436">
        <ele>428.7</ele>
        <time>2019-09-12T08:09:28Z</time>
      </trkpt>
      <trkpt lat="45.70231" lon="5.72422">
        <ele>430.1</ele>
        <time>2019-09-12T08:09:44Z</time>
      </trkpt>
      <trkpt lat="45.70223" lon="5.72409">
        <ele>431.4</ele>
        <time>2019-09-12T08:10:00Z</time>
      </trkpt>
      <trkpt lat="45.70219" lon="5.72395">
        <ele>432.7</ele>
        <time>2019-09-12T08:10:16Z</time>
      </trkpt>
      <trkpt lat="45.70213" lon="5.72379">
        <ele>434.1</ele>
        <time>2019-09-12T08:10:32Z</time>
      </trkpt>
      <trkpt lat="45.70206" lon="5.72363">
        <ele>435.2</ele>
        <time>2019-09-12T08:10:48Z</time>
      </trkpt>
      <trkpt lat="45.702" lon="5.72347">
        <ele>436.1</ele>
        <time>2019-09-12T08:11:04Z</time>
      </trkpt>
      <trkpt lat="45.70193" lon="5.72329">
        <ele>437</ele>
        <time>2019-09-12T08:11:20Z</time>
      </trkpt>
      <trkpt lat="45.70191" lon="5.72309">
        <ele>437.6</ele>
        <time>2019-09-12T08:11:36Z</time>
      </trkpt>
      <trkpt lat="45.7019" lon="5.72291">
        <ele>438.1</ele>
        <time>2019-09-12T08:11:52Z</time>
      </trkpt>
      <trkpt lat="45.70188" lon="5.72276">
        <ele>438.4</ele>
        <time>2019-09-12T08:12:08Z</time>
      </trkpt>
      <trkpt lat="45.7018" lon="5.72265">
        <ele>439.1</ele>
        <time>2019-09-12T08:12:24Z</time>
      </trkpt>
      <trkpt lat="45.70169" lon="5.72263">
        <ele>439.6</ele>
        <time>2019-09-12T08:12:40Z</time>
      </trkpt>
      <trkpt lat="45.70161" lon="5.72264">
        <ele>439.6</ele>
        <time>2019-09-12T08:12:56Z</time>
      </trkpt>
      <trkpt lat="45.70152" lon="5.72263">
        <ele>439.7</ele>
        <time>2019-09-12T08:13:12Z</time>
      </trkpt>
      <trkpt lat="45.70145" lon="5.7226">
        <ele>439.6</ele>
        <time>2019-09-12T08:13:28Z</time>
      </trkpt>
      <trkpt lat="45.70139" lon="5.72249">
        <ele>440.4</ele>
        <time>2019-09-12T08:13:44Z</time>
      </trkpt>
      <trkpt lat="45.70133" lon="5.72237">
        <ele>441.1</ele>
        <time>2019-09-12T08:14:00Z</time>
      </trkpt>
      <trkpt lat="45.70127" lon="5.72223">
        <ele>441.2</ele>
        <time>2019-09-12T08:14:16Z</time>
      </trkpt>
      <trkpt lat="45.70124" lon="5.72212">
        <ele>441.2</ele>
        <time>2019-09-12T08:14:32Z</time>
      </trkpt>
      <trkpt lat="45.70121" lon="5.72199">
        <ele>441.7</ele>
        <time>2019-09-12T08:14:48Z</time>
      </trkpt>
      <trkpt lat="45.70121" lon="5.72187">
        <ele>442.2</ele>
        <time>2019-09-12T08:15:03Z</time>
      </trkpt>
      <trkpt lat="45.7012" lon="5.72176">
        <ele>442.4</ele>
        <time>2019-09-12T08:15:35Z</time>
      </trkpt>
      <trkpt lat="45.70119" lon="5.72168">
        <ele>442.2</ele>
        <time>2019-09-12T08:17:11Z</time>
      </trkpt>
      <trkpt lat="45.70114" lon="5.72169">
        <ele>440.4</ele>
        <time>2019-09-12T08:20:23Z</time>
      </trkpt>
      <trkpt lat="45.70114" lon="5.72177">
        <ele>440.8</ele>
        <time>2019-09-12T08:20:39Z</time>
      </trkpt>
      <trkpt lat="45.70109" lon="5.72184">
        <ele>440.1</ele>
        <time>2019-09-12T08:21:11Z</time>
      </trkpt>
      <trkpt lat="45.70102" lon="5.72186">
        <ele>439.7</ele>
        <time>2019-09-12T08:21:27Z</time>
      </trkpt>
      <trkpt lat="45.70093" lon="5.72187">
        <ele>439.4</ele>
        <time>2019-09-12T08:21:43Z</time>
      </trkpt>
      <trkpt lat="45.70082" lon="5.72188">
        <ele>439.3</ele>
        <time>2019-09-12T08:21:59Z</time>
      </trkpt>
      <trkpt lat="45.70072" lon="5.72187">
        <ele>439.6</ele>
        <time>2019-09-12T08:22:15Z</time>
      </trkpt>
      <trkpt lat="45.70063" lon="5.72187">
        <ele>439.8</ele>
        <time>2019-09-12T08:22:31Z</time>
      </trkpt>
      <trkpt lat="45.70053" lon="5.72187">
        <ele>440.1</ele>
        <time>2019-09-12T08:22:47Z</time>
      </trkpt>
      <trkpt lat="45.70043" lon="5.72186">
        <ele>440.8</ele>
        <time>2019-09-12T08:23:03Z</time>
      </trkpt>
      <trkpt lat="45.7003" lon="5.72186">
        <ele>441.4</ele>
        <time>2019-09-12T08:23:19Z</time>
      </trkpt>
      <trkpt lat="45.70019" lon="5.72189">
        <ele>441.8</ele>
        <time>2019-09-12T08:23:35Z</time>
      </trkpt>
      <trkpt lat="45.70009" lon="5.72191">
        <ele>442.7</ele>
        <time>2019-09-12T08:23:51Z</time>
      </trkpt>
      <trkpt lat="45.69998" lon="5.72193">
        <ele>443.6</ele>
        <time>2019-09-12T08:24:07Z</time>
      </trkpt>
      <trkpt lat="45.69988" lon="5.72196">
        <ele>444.8</ele>
        <time>2019-09-12T08:24:23Z</time>
      </trkpt>
      <trkpt lat="45.69979" lon="5.72198">
        <ele>446.2</ele>
        <time>2019-09-12T08:24:39Z</time>
      </trkpt>
      <trkpt lat="45.69971" lon="5.72195">
        <ele>447.7</ele>
        <time>2019-09-12T08:24:55Z</time>
      </trkpt>
      <trkpt lat="45.69963" lon="5.72191">
        <ele>448.8</ele>
        <time>2019-09-12T08:25:11Z</time>
      </trkpt>
      <trkpt lat="45.69955" lon="5.72189">
        <ele>450.5</ele>
        <time>2019-09-12T08:25:27Z</time>
      </trkpt>
      <trkpt lat="45.69947" lon="5.72185">
        <ele>452.2</ele>
        <time>2019-09-12T08:25:43Z</time>
      </trkpt>
      <trkpt lat="45.69939" lon="5.72183">
        <ele>453.2</ele>
        <time>2019-09-12T08:25:59Z</time>
      </trkpt>
      <trkpt lat="45.6993" lon="5.72181">
        <ele>454.7</ele>
        <time>2019-09-12T08:26:15Z</time>
      </trkpt>
      <trkpt lat="45.69926" lon="5.72185">
        <ele>456.5</ele>
        <time>2019-09-12T08:26:31Z</time>
      </trkpt>
      <trkpt lat="45.69918" lon="5.72194">
        <ele>457.7</ele>
        <time>2019-09-12T08:26:47Z</time>
      </trkpt>
      <trkpt lat="45.69912" lon="5.72203">
        <ele>459.2</ele>
        <time>2019-09-12T08:27:03Z</time>
      </trkpt>
      <trkpt lat="45.69905" lon="5.72211">
        <ele>460.7</ele>
        <time>2019-09-12T08:27:19Z</time>
      </trkpt>
      <trkpt lat="45.69893" lon="5.72222">
        <ele>462.3</ele>
        <time>2019-09-12T08:27:35Z</time>
      </trkpt>
      <trkpt lat="45.69887" lon="5.72229">
        <ele>463.1</ele>
        <time>2019-09-12T08:27:51Z</time>
      </trkpt>
      <trkpt lat="45.69879" lon="5.72238">
        <ele>464</ele>
        <time>2019-09-12T08:28:07Z</time>
      </trkpt>
      <trkpt lat="45.69871" lon="5.72244">
        <ele>464.2</ele>
        <time>2019-09-12T08:28:23Z</time>
      </trkpt>
      <trkpt lat="45.69861" lon="5.7225">
        <ele>464.6</ele>
        <time>2019-09-12T08:28:39Z</time>
      </trkpt>
      <trkpt lat="45.69852" lon="5.72256">
        <ele>464.9</ele>
        <time>2019-09-12T08:28:55Z</time>
      </trkpt>
      <trkpt lat="45.69842" lon="5.72263">
        <ele>465.4</ele>
        <time>2019-09-12T08:29:11Z</time>
      </trkpt>
      <trkpt lat="45.69835" lon="5.72267">
        <ele>465.6</ele>
        <time>2019-09-12T08:29:27Z</time>
      </trkpt>
      <trkpt lat="45.6983" lon="5.72269">
        <ele>465.9</ele>
        <time>2019-09-12T08:29:43Z</time>
      </trkpt>
      <trkpt lat="45.69824" lon="5.72269">
        <ele>466.3</ele>
        <time>2019-09-12T08:29:59Z</time>
      </trkpt>
      <trkpt lat="45.6982" lon="5.72265">
        <ele>466.7</ele>
        <time>2019-09-12T08:30:15Z</time>
      </trkpt>
      <trkpt lat="45.69813" lon="5.72257">
        <ele>466.9</ele>
        <time>2019-09-12T08:30:31Z</time>
      </trkpt>
      <trkpt lat="45.69808" lon="5.72246">
        <ele>467.3</ele>
        <time>2019-09-12T08:30:47Z</time>
      </trkpt>
      <trkpt lat="45.698" lon="5.72233">
        <ele>467.1</ele>
        <time>2019-09-12T08:31:03Z</time>
      </trkpt>
      <trkpt lat="45.69793" lon="5.72224">
        <ele>467.2</ele>
        <time>2019-09-12T08:31:18Z</time>
      </trkpt>
      <trkpt lat="45.69781" lon="5.72212">
        <ele>467.5</ele>
        <time>2019-09-12T08:31:34Z</time>
      </trkpt>
      <trkpt lat="45.69768" lon="5.72202">
        <ele>467.7</ele>
        <time>2019-09-12T08:31:50Z</time>
      </trkpt>
      <trkpt lat="45.69756" lon="5.72198">
        <ele>467.5</ele>
        <time>2019-09-12T08:32:06Z</time>
      </trkpt>
      <trkpt lat="45.69744" lon="5.72195">
        <ele>467.6</ele>
        <time>2019-09-12T08:32:21Z</time>
      </trkpt>
      <trkpt lat="45.69734" lon="5.72194">
        <ele>467.9</ele>
        <time>2019-09-12T08:32:36Z</time>
      </trkpt>
      <trkpt lat="45.69723" lon="5.7219">
        <ele>468.4</ele>
        <time>2019-09-12T08:32:52Z</time>
      </trkpt>
      <trkpt lat="45.69711" lon="5.72188">
        <ele>469.1</ele>
        <time>2019-09-12T08:33:07Z</time>
      </trkpt>
      <trkpt lat="45.69699" lon="5.7219">
        <ele>469.7</ele>
        <time>2019-09-12T08:33:23Z</time>
      </trkpt>
      <trkpt lat="45.69687" lon="5.72196">
        <ele>470.6</ele>
        <time>2019-09-12T08:33:39Z</time>
      </trkpt>
      <trkpt lat="45.69677" lon="5.72203">
        <ele>471.2</ele>
        <time>2019-09-12T08:33:55Z</time>
      </trkpt>
      <trkpt lat="45.69665" lon="5.72213">
        <ele>471.7</ele>
        <time>2019-09-12T08:34:11Z</time>
      </trkpt>
      <trkpt lat="45.69655" lon="5.72225">
        <ele>472.3</ele>
        <time>2019-09-12T08:34:27Z</time>
      </trkpt>
      <trkpt lat="45.69644" lon="5.72237">
        <ele>472.7</ele>
        <time>2019-09-12T08:34:42Z</time>
      </trkpt>
      <trkpt lat="45.69633" lon="5.72249">
        <ele>473.2</ele>
        <time>2019-09-12T08:34:58Z</time>
      </trkpt>
      <trkpt lat="45.69622" lon="5.72257">
        <ele>474.1</ele>
        <time>2019-09-12T08:35:14Z</time>
      </trkpt>
      <trkpt lat="45.69614" lon="5.72263">
        <ele>474.8</ele>
        <time>2019-09-12T08:35:30Z</time>
      </trkpt>
      <trkpt lat="45.69609" lon="5.72266">
        <ele>475.2</ele>
        <time>2019-09-12T08:35:45Z</time>
      </trkpt>
      <trkpt lat="45.69602" lon="5.72264">
        <ele>476.4</ele>
        <time>2019-09-12T08:36:01Z</time>
      </trkpt>
      <trkpt lat="45.69595" lon="5.72259">
        <ele>477.4</ele>
        <time>2019-09-12T08:36:17Z</time>
      </trkpt>
      <trkpt lat="45.69586" lon="5.7225">
        <ele>478.1</ele>
        <time>2019-09-12T08:36:32Z</time>
      </trkpt>
      <trkpt lat="45.69579" lon="5.72243">
        <ele>478.8</ele>
        <time>2019-09-12T08:36:48Z</time>
      </trkpt>
      <trkpt lat="45.69572" lon="5.72234">
        <ele>479.9</ele>
        <time>2019-09-12T08:37:04Z</time>
      </trkpt>
      <trkpt lat="45.69567" lon="5.72228">
        <ele>480.8</ele>
        <time>2019-09-12T08:37:20Z</time>
      </trkpt>
      <trkpt lat="45.69561" lon="5.72219">
        <ele>482.9</ele>
        <time>2019-09-12T08:37:36Z</time>
      </trkpt>
      <trkpt lat="45.69556" lon="5.7221">
        <ele>484.4</ele>
        <time>2019-09-12T08:37:52Z</time>
      </trkpt>
      <trkpt lat="45.69551" lon="5.72203">
        <ele>485.3</ele>
        <time>2019-09-12T08:38:08Z</time>
      </trkpt>
      <trkpt lat="45.69548" lon="5.72196">
        <ele>486.9</ele>
        <time>2019-09-12T08:38:24Z</time>
      </trkpt>
      <trkpt lat="45.69544" lon="5.72187">
        <ele>488.5</ele>
        <time>2019-09-12T08:38:40Z</time>
      </trkpt>
      <trkpt lat="45.6954" lon="5.72181">
        <ele>489.2</ele>
        <time>2019-09-12T08:38:56Z</time>
      </trkpt>
      <trkpt lat="45.69537" lon="5.72174">
        <ele>489.5</ele>
        <time>2019-09-12T08:39:12Z</time>
      </trkpt>
      <trkpt lat="45.69532" lon="5.72185">
        <ele>490.9</ele>
        <time>2019-09-12T08:40:48Z</time>
      </trkpt>
      <trkpt lat="45.69526" lon="5.72192">
        <ele>490.3</ele>
        <time>2019-09-12T08:41:04Z</time>
      </trkpt>
      <trkpt lat="45.69516" lon="5.72198">
        <ele>489.8</ele>
        <time>2019-09-12T08:41:20Z</time>
      </trkpt>
      <trkpt lat="45.69508" lon="5.72203">
        <ele>489.5</ele>
        <time>2019-09-12T08:41:36Z</time>
      </trkpt>
      <trkpt lat="45.695" lon="5.72208">
        <ele>489.2</ele>
        <time>2019-09-12T08:41:52Z</time>
      </trkpt>
      <trkpt lat="45.69486" lon="5.72215">
        <ele>489.1</ele>
        <time>2019-09-12T08:42:08Z</time>
      </trkpt>
      <trkpt lat="45.69473" lon="5.72223">
        <ele>489.3</ele>
        <time>2019-09-12T08:42:24Z</time>
      </trkpt>
      <trkpt lat="45.69458" lon="5.72232">
        <ele>489.8</ele>
        <time>2019-09-12T08:42:40Z</time>
      </trkpt>
      <trkpt lat="45.6945" lon="5.72243">
        <ele>490</ele>
        <time>2019-09-12T08:42:56Z</time>
      </trkpt>
      <trkpt lat="45.69442" lon="5.72257">
        <ele>490.6</ele>
        <time>2019-09-12T08:43:11Z</time>
      </trkpt>
      <trkpt lat="45.69433" lon="5.72271">
        <ele>491.6</ele>
        <time>2019-09-12T08:43:27Z</time>
      </trkpt>
      <trkpt lat="45.69425" lon="5.72285">
        <ele>492.3</ele>
        <time>2019-09-12T08:43:43Z</time>
      </trkpt>
      <trkpt lat="45.69417" lon="5.72298">
        <ele>493</ele>
        <time>2019-09-12T08:43:59Z</time>
      </trkpt>
      <trkpt lat="45.69414" lon="5.72305">
        <ele>493.5</ele>
        <time>2019-09-12T08:44:15Z</time>
      </trkpt>
      <trkpt lat="45.69416" lon="5.72314">
        <ele>494.3</ele>
        <time>2019-09-12T08:44:46Z</time>
      </trkpt>
      <trkpt lat="45.69409" lon="5.72318">
        <ele>494</ele>
        <time>2019-09-12T08:46:21Z</time>
      </trkpt>
      <trkpt lat="45.69402" lon="5.72315">
        <ele>494.1</ele>
        <time>2019-09-12T08:46:52Z</time>
      </trkpt>
      <trkpt lat="45.69397" lon="5.72311">
        <ele>493.9</ele>
        <time>2019-09-12T08:47:08Z</time>
      </trkpt>
      <trkpt lat="45.69397" lon="5.72301">
        <ele>494.2</ele>
        <time>2019-09-12T08:47:24Z</time>
      </trkpt>
      <trkpt lat="45.69393" lon="5.72292">
        <ele>495.2</ele>
        <time>2019-09-12T08:47:39Z</time>
      </trkpt>
      <trkpt lat="45.6939" lon="5.72281">
        <ele>496.8</ele>
        <time>2019-09-12T08:47:55Z</time>
      </trkpt>
      <trkpt lat="45.6939" lon="5.72271">
        <ele>497.9</ele>
        <time>2019-09-12T08:48:11Z</time>
      </trkpt>
      <trkpt lat="45.69388" lon="5.72262">
        <ele>498.8</ele>
        <time>2019-09-12T08:48:27Z</time>
      </trkpt>
      <trkpt lat="45.69385" lon="5.7225">
        <ele>500.4</ele>
        <time>2019-09-12T08:48:43Z</time>
      </trkpt>
      <trkpt lat="45.69381" lon="5.72238">
        <ele>501.4</ele>
        <time>2019-09-12T08:48:59Z</time>
      </trkpt>
      <trkpt lat="45.69375" lon="5.72228">
        <ele>502.6</ele>
        <time>2019-09-12T08:49:15Z</time>
      </trkpt>
      <trkpt lat="45.69372" lon="5.72217">
        <ele>503.8</ele>
        <time>2019-09-12T08:49:31Z</time>
      </trkpt>
      <trkpt lat="45.69367" lon="5.72206">
        <ele>505.2</ele>
        <time>2019-09-12T08:49:47Z</time>
      </trkpt>
      <trkpt lat="45.69363" lon="5.72196">
        <ele>506.6</ele>
        <time>2019-09-12T08:50:03Z</time>
      </trkpt>
      <trkpt lat="45.69356" lon="5.72187">
        <ele>507.9</ele>
        <time>2019-09-12T08:50:19Z</time>
      </trkpt>
      <trkpt lat="45.69348" lon="5.72175">
        <ele>509</ele>
        <time>2019-09-12T08:50:35Z</time>
      </trkpt>
      <trkpt lat="45.69339" lon="5.72166">
        <ele>510.4</ele>
        <time>2019-09-12T08:50:51Z</time>
      </trkpt>
      <trkpt lat="45.69328" lon="5.72157">
        <ele>511.7</ele>
        <time>2019-09-12T08:51:07Z</time>
      </trkpt>
      <trkpt lat="45.69317" lon="5.72148">
        <ele>513.2</ele>
        <time>2019-09-12T08:51:23Z</time>
      </trkpt>
      <trkpt lat="45.69304" lon="5.72148">
        <ele>514.9</ele>
        <time>2019-09-12T08:51:39Z</time>
      </trkpt>
      <trkpt lat="45.69298" lon="5.72153">
        <ele>516.4</ele>
        <time>2019-09-12T08:51:55Z</time>
      </trkpt>
      <trkpt lat="45.69295" lon="5.7216">
        <ele>518.1</ele>
        <time>2019-09-12T08:52:11Z</time>
      </trkpt>
      <trkpt lat="45.69295" lon="5.72169">
        <ele>519.7</ele>
        <time>2019-09-12T08:52:27Z</time>
      </trkpt>
      <trkpt lat="45.69295" lon="5.72177">
        <ele>521.4</ele>
        <time>2019-09-12T08:52:43Z</time>
      </trkpt>
      <trkpt lat="45.69294" lon="5.72186">
        <ele>523.1</ele>
        <time>2019-09-12T08:52:59Z</time>
      </trkpt>
      <trkpt lat="45.69286" lon="5.72177">
        <ele>527.2</ele>
        <time>2019-09-12T08:53:47Z</time>
      </trkpt>
      <trkpt lat="45.69277" lon="5.72171">
        <ele>528.6</ele>
        <time>2019-09-12T08:54:03Z</time>
      </trkpt>
      <trkpt lat="45.69269" lon="5.72166">
        <ele>530.1</ele>
        <time>2019-09-12T08:54:18Z</time>
      </trkpt>
      <trkpt lat="45.6926" lon="5.72162">
        <ele>531.2</ele>
        <time>2019-09-12T08:54:34Z</time>
      </trkpt>
      <trkpt lat="45.69251" lon="5.72156">
        <ele>532.5</ele>
        <time>2019-09-12T08:54:50Z</time>
      </trkpt>
      <trkpt lat="45.69241" lon="5.72147">
        <ele>534.1</ele>
        <time>2019-09-12T08:55:06Z</time>
      </trkpt>
      <trkpt lat="45.69227" lon="5.72139">
        <ele>535.2</ele>
        <time>2019-09-12T08:55:22Z</time>
      </trkpt>
      <trkpt lat="45.69216" lon="5.72131">
        <ele>536.1</ele>
        <time>2019-09-12T08:55:38Z</time>
      </trkpt>
      <trkpt lat="45.69205" lon="5.72124">
        <ele>536.4</ele>
        <time>2019-09-12T08:55:54Z</time>
      </trkpt>
      <trkpt lat="45.69194" lon="5.72117">
        <ele>536.4</ele>
        <time>2019-09-12T08:56:10Z</time>
      </trkpt>
      <trkpt lat="45.69183" lon="5.72112">
        <ele>536.1</ele>
        <time>2019-09-12T08:56:26Z</time>
      </trkpt>
      <trkpt lat="45.6917" lon="5.7211">
        <ele>535.6</ele>
        <time>2019-09-12T08:56:42Z</time>
      </trkpt>
      <trkpt lat="45.6916" lon="5.7211">
        <ele>534.7</ele>
        <time>2019-09-12T08:56:58Z</time>
      </trkpt>
      <trkpt lat="45.69149" lon="5.72104">
        <ele>534.2</ele>
        <time>2019-09-12T08:57:13Z</time>
      </trkpt>
      <trkpt lat="45.69138" lon="5.72099">
        <ele>533.7</ele>
        <time>2019-09-12T08:57:29Z</time>
      </trkpt>
      <trkpt lat="45.69129" lon="5.72091">
        <ele>533.8</ele>
        <time>2019-09-12T08:57:44Z</time>
      </trkpt>
      <trkpt lat="45.69118" lon="5.72085">
        <ele>534.4</ele>
        <time>2019-09-12T08:58:00Z</time>
      </trkpt>
      <trkpt lat="45.69107" lon="5.72078">
        <ele>534.9</ele>
        <time>2019-09-12T08:58:16Z</time>
      </trkpt>
      <trkpt lat="45.69094" lon="5.72073">
        <ele>535.4</ele>
        <time>2019-09-12T08:58:32Z</time>
      </trkpt>
      <trkpt lat="45.69084" lon="5.7207">
        <ele>535.7</ele>
        <time>2019-09-12T08:58:48Z</time>
      </trkpt>
      <trkpt lat="45.69072" lon="5.72069">
        <ele>536</ele>
        <time>2019-09-12T08:59:04Z</time>
      </trkpt>
      <trkpt lat="45.69062" lon="5.72066">
        <ele>535.8</ele>
        <time>2019-09-12T08:59:20Z</time>
      </trkpt>
      <trkpt lat="45.69052" lon="5.72066">
        <ele>535.3</ele>
        <time>2019-09-12T08:59:36Z</time>
      </trkpt>
      <trkpt lat="45.69039" lon="5.72063">
        <ele>534.7</ele>
        <time>2019-09-12T08:59:52Z</time>
      </trkpt>
      <trkpt lat="45.6903" lon="5.72065">
        <ele>534</ele>
        <time>2019-09-12T09:00:08Z</time>
      </trkpt>
      <trkpt lat="45.69021" lon="5.72066">
        <ele>533.1</ele>
        <time>2019-09-12T09:00:24Z</time>
      </trkpt>
      <trkpt lat="45.69013" lon="5.72068">
        <ele>532.1</ele>
        <time>2019-09-12T09:00:40Z</time>
      </trkpt>
      <trkpt lat="45.69004" lon="5.72068">
        <ele>530.8</ele>
        <time>2019-09-12T09:00:56Z</time>
      </trkpt>
      <trkpt lat="45.68995" lon="5.72067">
        <ele>529.8</ele>
        <time>2019-09-12T09:01:11Z</time>
      </trkpt>
      <trkpt lat="45.68991" lon="5.72067">
        <ele>529</ele>
        <time>2019-09-12T09:01:27Z</time>
      </trkpt>
      <trkpt lat="45.68984" lon="5.72066">
        <ele>528.4</ele>
        <time>2019-09-12T09:01:43Z</time>
      </trkpt>
      <trkpt lat="45.68979" lon="5.72065">
        <ele>527.8</ele>
        <time>2019-09-12T09:01:59Z</time>
      </trkpt>
      <trkpt lat="45.68973" lon="5.72062">
        <ele>527.3</ele>
        <time>2019-09-12T09:02:15Z</time>
      </trkpt>
      <trkpt lat="45.68969" lon="5.72068">
        <ele>526.8</ele>
        <time>2019-09-12T09:02:47Z</time>
      </trkpt>
      <trkpt lat="45.68973" lon="5.72073">
        <ele>526.6</ele>
        <time>2019-09-12T09:03:19Z</time>
      </trkpt>
      <trkpt lat="45.68981" lon="5.72074">
        <ele>526.3</ele>
        <time>2019-09-12T09:03:35Z</time>
      </trkpt>
      <trkpt lat="45.68975" lon="5.7208">
        <ele>525.8</ele>
        <time>2019-09-12T09:04:23Z</time>
      </trkpt>
      <trkpt lat="45.68969" lon="5.72083">
        <ele>525.6</ele>
        <time>2019-09-12T09:04:39Z</time>
      </trkpt>
      <trkpt lat="45.68963" lon="5.72085">
        <ele>525.6</ele>
        <time>2019-09-12T09:04:55Z</time>
      </trkpt>
      <trkpt lat="45.68956" lon="5.72083">
        <ele>525.4</ele>
        <time>2019-09-12T09:05:11Z</time>
      </trkpt>
      <trkpt lat="45.68946" lon="5.72079">
        <ele>525.2</ele>
        <time>2019-09-12T09:05:27Z</time>
      </trkpt>
      <trkpt lat="45.68938" lon="5.72075">
        <ele>525.3</ele>
        <time>2019-09-12T09:05:42Z</time>
      </trkpt>
      <trkpt lat="45.68932" lon="5.72076">
        <ele>525.6</ele>
        <time>2019-09-12T09:05:57Z</time>
      </trkpt>
      <trkpt lat="45.68934" lon="5.72093">
        <ele>525.9</ele>
        <time>2019-09-12T09:06:29Z</time>
      </trkpt>
      <trkpt lat="45.6894" lon="5.72104">
        <ele>526.2</ele>
        <time>2019-09-12T09:06:45Z</time>
      </trkpt>
      <trkpt lat="45.68947" lon="5.72112">
        <ele>526.4</ele>
        <time>2019-09-12T09:07:00Z</time>
      </trkpt>
      <trkpt lat="45.68956" lon="5.72121">
        <ele>526.7</ele>
        <time>2019-09-12T09:07:16Z</time>
      </trkpt>
      <trkpt lat="45.68961" lon="5.72133">
        <ele>527.1</ele>
        <time>2019-09-12T09:07:32Z</time>
      </trkpt>
      <trkpt lat="45.68967" lon="5.72144">
        <ele>528.3</ele>
        <time>2019-09-12T09:07:48Z</time>
      </trkpt>
      <trkpt lat="45.68971" lon="5.72156">
        <ele>529.9</ele>
        <time>2019-09-12T09:08:04Z</time>
      </trkpt>
      <trkpt lat="45.68974" lon="5.72165">
        <ele>531</ele>
        <time>2019-09-12T09:08:20Z</time>
      </trkpt>
      <trkpt lat="45.68977" lon="5.72177">
        <ele>531.6</ele>
        <time>2019-09-12T09:08:36Z</time>
      </trkpt>
      <trkpt lat="45.6898" lon="5.7219">
        <ele>532</ele>
        <time>2019-09-12T09:08:52Z</time>
      </trkpt>
      <trkpt lat="45.68983" lon="5.72202">
        <ele>532.2</ele>
        <time>2019-09-12T09:09:08Z</time>
      </trkpt>
      <trkpt lat="45.68982" lon="5.72212">
        <ele>532.7</ele>
        <time>2019-09-12T09:09:24Z</time>
      </trkpt>
      <trkpt lat="45.68982" lon="5.7222">
        <ele>533.1</ele>
        <time>2019-09-12T09:09:40Z</time>
      </trkpt>
      <trkpt lat="45.68969" lon="5.72225">
        <ele>533.9</ele>
        <time>2019-09-12T09:10:12Z</time>
      </trkpt>
      <trkpt lat="45.68956" lon="5.72226">
        <ele>534.4</ele>
        <time>2019-09-12T09:10:28Z</time>
      </trkpt>
      <trkpt lat="45.68942" lon="5.72228">
        <ele>535.4</ele>
        <time>2019-09-12T09:10:44Z</time>
      </trkpt>
      <trkpt lat="45.68941" lon="5.7224">
        <ele>536.6</ele>
        <time>2019-09-12T09:11:00Z</time>
      </trkpt>
      <trkpt lat="45.6894" lon="5.72255">
        <ele>537.8</ele>
        <time>2019-09-12T09:11:16Z</time>
      </trkpt>
      <trkpt lat="45.68937" lon="5.72261">
        <ele>538.8</ele>
        <time>2019-09-12T09:11:32Z</time>
      </trkpt>
      <trkpt lat="45.68936" lon="5.72268">
        <ele>540.3</ele>
        <time>2019-09-12T09:12:04Z</time>
      </trkpt>
      <trkpt lat="45.68932" lon="5.72275">
        <ele>543.6</ele>
        <time>2019-09-12T09:13:40Z</time>
      </trkpt>
      <trkpt lat="45.68927" lon="5.72275">
        <ele>543.9</ele>
        <time>2019-09-12T09:13:56Z</time>
      </trkpt>
      <trkpt lat="45.68919" lon="5.72274">
        <ele>544.2</ele>
        <time>2019-09-12T09:14:12Z</time>
      </trkpt>
      <trkpt lat="45.68912" lon="5.72273">
        <ele>544.3</ele>
        <time>2019-09-12T09:14:28Z</time>
      </trkpt>
      <trkpt lat="45.68908" lon="5.72277">
        <ele>543.7</ele>
        <time>2019-09-12T09:14:44Z</time>
      </trkpt>
      <trkpt lat="45.68908" lon="5.72286">
        <ele>543.2</ele>
        <time>2019-09-12T09:15:16Z</time>
      </trkpt>
      <trkpt lat="45.68901" lon="5.72283">
        <ele>542.2</ele>
        <time>2019-09-12T09:16:20Z</time>
      </trkpt>
      <trkpt lat="45.68901" lon="5.72277">
        <ele>541.3</ele>
        <time>2019-09-12T09:17:08Z</time>
      </trkpt>
      <trkpt lat="45.68901" lon="5.7227">
        <ele>541.2</ele>
        <time>2019-09-12T09:17:24Z</time>
      </trkpt>
      <trkpt lat="45.68889" lon="5.72268">
        <ele>541.1</ele>
        <time>2019-09-12T09:17:40Z</time>
      </trkpt>
      <trkpt lat="45.68877" lon="5.72266">
        <ele>541.3</ele>
        <time>2019-09-12T09:17:56Z</time>
      </trkpt>
      <trkpt lat="45.68867" lon="5.72261">
        <ele>541.3</ele>
        <time>2019-09-12T09:18:12Z</time>
      </trkpt>
      <trkpt lat="45.6886" lon="5.72252">
        <ele>541.3</ele>
        <time>2019-09-12T09:18:28Z</time>
      </trkpt>
      <trkpt lat="45.68853" lon="5.7224">
        <ele>541.2</ele>
        <time>2019-09-12T09:18:44Z</time>
      </trkpt>
      <trkpt lat="45.68848" lon="5.72225">
        <ele>541.1</ele>
        <time>2019-09-12T09:19:00Z</time>
      </trkpt>
      <trkpt lat="45.68842" lon="5.72209">
        <ele>540.9</ele>
        <time>2019-09-12T09:19:16Z</time>
      </trkpt>
      <trkpt lat="45.68834" lon="5.72198">
        <ele>540.6</ele>
        <time>2019-09-12T09:19:32Z</time>
      </trkpt>
      <trkpt lat="45.68823" lon="5.72197">
        <ele>540.4</ele>
        <time>2019-09-12T09:19:48Z</time>
      </trkpt>
      <trkpt lat="45.68815" lon="5.72206">
        <ele>540.4</ele>
        <time>2019-09-12T09:20:04Z</time>
      </trkpt>
      <trkpt lat="45.6881" lon="5.72216">
        <ele>540.4</ele>
        <time>2019-09-12T09:20:20Z</time>
      </trkpt>
      <trkpt lat="45.68808" lon="5.72226">
        <ele>540.3</ele>
        <time>2019-09-12T09:20:35Z</time>
      </trkpt>
      <trkpt lat="45.68801" lon="5.72233">
        <ele>540.5</ele>
        <time>2019-09-12T09:20:51Z</time>
      </trkpt>
      <trkpt lat="45.68794" lon="5.72241">
        <ele>540.2</ele>
        <time>2019-09-12T09:21:07Z</time>
      </trkpt>
      <trkpt lat="45.68785" lon="5.7225">
        <ele>539.8</ele>
        <time>2019-09-12T09:21:23Z</time>
      </trkpt>
      <trkpt lat="45.68779" lon="5.7226">
        <ele>540</ele>
        <time>2019-09-12T09:21:39Z</time>
      </trkpt>
      <trkpt lat="45.68775" lon="5.72266">
        <ele>539.9</ele>
        <time>2019-09-12T09:21:55Z</time>
      </trkpt>
      <trkpt lat="45.68771" lon="5.72272">
        <ele>539.8</ele>
        <time>2019-09-12T09:22:27Z</time>
      </trkpt>
      <trkpt lat="45.68765" lon="5.72277">
        <ele>539</ele>
        <time>2019-09-12T09:24:19Z</time>
      </trkpt>
      <trkpt lat="45.68758" lon="5.7228">
        <ele>538.9</ele>
        <time>2019-09-12T09:24:35Z</time>
      </trkpt>
      <trkpt lat="45.6875" lon="5.72281">
        <ele>538.5</ele>
        <time>2019-09-12T09:24:51Z</time>
      </trkpt>
      <trkpt lat="45.6874" lon="5.72282">
        <ele>538.1</ele>
        <time>2019-09-12T09:25:07Z</time>
      </trkpt>
      <trkpt lat="45.68732" lon="5.7229">
        <ele>537.5</ele>
        <time>2019-09-12T09:25:23Z</time>
      </trkpt>
      <trkpt lat="45.68729" lon="5.72301">
        <ele>536.8</ele>
        <time>2019-09-12T09:25:39Z</time>
      </trkpt>
      <trkpt lat="45.6873" lon="5.72315">
        <ele>535.1</ele>
        <time>2019-09-12T09:25:55Z</time>
      </trkpt>
      <trkpt lat="45.6873" lon="5.72328">
        <ele>533.6</ele>
        <time>2019-09-12T09:26:11Z</time>
      </trkpt>
      <trkpt lat="45.68725" lon="5.7234">
        <ele>532</ele>
        <time>2019-09-12T09:26:26Z</time>
      </trkpt>
      <trkpt lat="45.68719" lon="5.72351">
        <ele>530</ele>
        <time>2019-09-12T09:26:42Z</time>
      </trkpt>
      <trkpt lat="45.68711" lon="5.72359">
        <ele>528.4</ele>
        <time>2019-09-12T09:26:58Z</time>
      </trkpt>
      <trkpt lat="45.687" lon="5.72368">
        <ele>526.4</ele>
        <time>2019-09-12T09:27:13Z</time>
      </trkpt>
      <trkpt lat="45.68688" lon="5.72375">
        <ele>524.5</ele>
        <time>2019-09-12T09:27:30Z</time>
      </trkpt>
      <trkpt lat="45.68676" lon="5.72384">
        <ele>522.6</ele>
        <time>2019-09-12T09:27:46Z</time>
      </trkpt>
      <trkpt lat="45.6867" lon="5.7239">
        <ele>521.4</ele>
        <time>2019-09-12T09:28:02Z</time>
      </trkpt>
      <trkpt lat="45.68664" lon="5.72398">
        <ele>519.9</ele>
        <time>2019-09-12T09:28:18Z</time>
      </trkpt>
      <trkpt lat="45.68654" lon="5.7241">
        <ele>518.5</ele>
        <time>2019-09-12T09:28:34Z</time>
      </trkpt>
      <trkpt lat="45.6865" lon="5.72422">
        <ele>516.9</ele>
        <time>2019-09-12T09:28:50Z</time>
      </trkpt>
      <trkpt lat="45.68648" lon="5.72436">
        <ele>515.3</ele>
        <time>2019-09-12T09:29:06Z</time>
      </trkpt>
      <trkpt lat="45.68646" lon="5.72449">
        <ele>513.6</ele>
        <time>2019-09-12T09:29:22Z</time>
      </trkpt>
      <trkpt lat="45.68641" lon="5.72463">
        <ele>511.9</ele>
        <time>2019-09-12T09:29:38Z</time>
      </trkpt>
      <trkpt lat="45.68634" lon="5.72476">
        <ele>510.3</ele>
        <time>2019-09-12T09:29:54Z</time>
      </trkpt>
      <trkpt lat="45.6863" lon="5.72488">
        <ele>507.5</ele>
        <time>2019-09-12T09:30:10Z</time>
      </trkpt>
      <trkpt lat="45.68624" lon="5.72498">
        <ele>505.2</ele>
        <time>2019-09-12T09:30:26Z</time>
      </trkpt>
      <trkpt lat="45.68618" lon="5.72506">
        <ele>503.1</ele>
        <time>2019-09-12T09:30:42Z</time>
      </trkpt>
      <trkpt lat="45.68613" lon="5.72515">
        <ele>501</ele>
        <time>2019-09-12T09:30:58Z</time>
      </trkpt>
      <trkpt lat="45.68607" lon="5.72522">
        <ele>499.2</ele>
        <time>2019-09-12T09:31:14Z</time>
      </trkpt>
      <trkpt lat="45.68605" lon="5.72533">
        <ele>497.5</ele>
        <time>2019-09-12T09:31:30Z</time>
      </trkpt>
      <trkpt lat="45.68603" lon="5.72545">
        <ele>496.3</ele>
        <time>2019-09-12T09:31:46Z</time>
      </trkpt>
      <trkpt lat="45.68601" lon="5.72557">
        <ele>495.2</ele>
        <time>2019-09-12T09:32:02Z</time>
      </trkpt>
      <trkpt lat="45.68596" lon="5.72566">
        <ele>494</ele>
        <time>2019-09-12T09:32:18Z</time>
      </trkpt>
      <trkpt lat="45.68589" lon="5.72573">
        <ele>492.5</ele>
        <time>2019-09-12T09:32:34Z</time>
      </trkpt>
      <trkpt lat="45.68583" lon="5.72582">
        <ele>490.8</ele>
        <time>2019-09-12T09:32:50Z</time>
      </trkpt>
      <trkpt lat="45.68576" lon="5.72593">
        <ele>489.4</ele>
        <time>2019-09-12T09:33:06Z</time>
      </trkpt>
      <trkpt lat="45.68569" lon="5.72606">
        <ele>488.1</ele>
        <time>2019-09-12T09:33:22Z</time>
      </trkpt>
      <trkpt lat="45.68563" lon="5.72619">
        <ele>486.9</ele>
        <time>2019-09-12T09:33:38Z</time>
      </trkpt>
      <trkpt lat="45.68557" lon="5.72631">
        <ele>485.7</ele>
        <time>2019-09-12T09:33:54Z</time>
      </trkpt>
      <trkpt lat="45.68552" lon="5.72643">
        <ele>484.6</ele>
        <time>2019-09-12T09:34:10Z</time>
      </trkpt>
      <trkpt lat="45.68549" lon="5.72649">
        <ele>483.7</ele>
        <time>2019-09-12T09:34:26Z</time>
      </trkpt>
      <trkpt lat="45.68546" lon="5.72658">
        <ele>482.5</ele>
        <time>2019-09-12T09:34:42Z</time>
      </trkpt>
      <trkpt lat="45.68543" lon="5.72666">
        <ele>481.1</ele>
        <time>2019-09-12T09:35:14Z</time>
      </trkpt>
      <trkpt lat="45.68544" lon="5.72676">
        <ele>478.4</ele>
        <time>2019-09-12T09:36:34Z</time>
      </trkpt>
      <trkpt lat="45.68546" lon="5.72684">
        <ele>478.2</ele>
        <time>2019-09-12T09:36:50Z</time>
      </trkpt>
      <trkpt lat="45.68547" lon="5.72693">
        <ele>477.7</ele>
        <time>2019-09-12T09:37:06Z</time>
      </trkpt>
      <trkpt lat="45.68546" lon="5.72704">
        <ele>477.1</ele>
        <time>2019-09-12T09:37:22Z</time>
      </trkpt>
      <trkpt lat="45.68547" lon="5.72712">
        <ele>476.5</ele>
        <time>2019-09-12T09:37:38Z</time>
      </trkpt>
      <trkpt lat="45.68546" lon="5.72725">
        <ele>475.4</ele>
        <time>2019-09-12T09:37:54Z</time>
      </trkpt>
      <trkpt lat="45.68544" lon="5.72735">
        <ele>474.1</ele>
        <time>2019-09-12T09:38:10Z</time>
      </trkpt>
      <trkpt lat="45.68541" lon="5.72744">
        <ele>473.4</ele>
        <time>2019-09-12T09:38:26Z</time>
      </trkpt>
      <trkpt lat="45.68541" lon="5.72753">
        <ele>472.2</ele>
        <time>2019-09-12T09:38:57Z</time>
      </trkpt>
      <trkpt lat="45.68543" lon="5.7277">
        <ele>468.8</ele>
        <time>2019-09-12T09:39:29Z</time>
      </trkpt>
      <trkpt lat="45.6855" lon="5.72777">
        <ele>467.1</ele>
        <time>2019-09-12T09:39:45Z</time>
      </trkpt>
      <trkpt lat="45.68556" lon="5.72778">
        <ele>465.5</ele>
        <time>2019-09-12T09:40:01Z</time>
      </trkpt>
      <trkpt lat="45.68564" lon="5.72779">
        <ele>463.4</ele>
        <time>2019-09-12T09:40:33Z</time>
      </trkpt>
      <trkpt lat="45.68569" lon="5.72778">
        <ele>461.7</ele>
        <time>2019-09-12T09:41:21Z</time>
      </trkpt>
      <trkpt lat="45.68567" lon="5.72771">
        <ele>459.8</ele>
        <time>2019-09-12T09:43:29Z</time>
      </trkpt>
      <trkpt lat="45.68572" lon="5.72772">
        <ele>456.8</ele>
        <time>2019-09-12T09:46:09Z</time>
      </trkpt>
      <trkpt lat="45.68566" lon="5.7277">
        <ele>456</ele>
        <time>2019-09-12T09:47:29Z</time>
      </trkpt>
      <trkpt lat="45.6857" lon="5.72765">
        <ele>454.8</ele>
        <time>2019-09-12T09:49:05Z</time>
      </trkpt>
      <trkpt lat="45.68569" lon="5.72772">
        <ele>455</ele>
        <time>2019-09-12T09:49:21Z</time>
      </trkpt>
      <trkpt lat="45.68564" lon="5.72768">
        <ele>455.6</ele>
        <time>2019-09-12T09:50:09Z</time>
      </trkpt>
      <trkpt lat="45.68569" lon="5.72766">
        <ele>453.8</ele>
        <time>2019-09-12T09:51:13Z</time>
      </trkpt>
      <trkpt lat="45.68564" lon="5.72767">
        <ele>451.8</ele>
        <time>2019-09-12T09:52:33Z</time>
      </trkpt>
      <trkpt lat="45.68569" lon="5.72768">
        <ele>451.9</ele>
        <time>2019-09-12T09:54:57Z</time>
      </trkpt>
      <trkpt lat="45.68573" lon="5.72773">
        <ele>452.3</ele>
        <time>2019-09-12T09:56:17Z</time>
      </trkpt>
      <trkpt lat="45.68567" lon="5.72774">
        <ele>452.1</ele>
        <time>2019-09-12T09:57:37Z</time>
      </trkpt>
      <trkpt lat="45.68562" lon="5.72777">
        <ele>452.4</ele>
        <time>2019-09-12T09:57:53Z</time>
      </trkpt>
      <trkpt lat="45.68557" lon="5.72776">
        <ele>452.5</ele>
        <time>2019-09-12T09:58:25Z</time>
      </trkpt>
      <trkpt lat="45.68562" lon="5.72773">
        <ele>453.1</ele>
        <time>2019-09-12T09:59:13Z</time>
      </trkpt>
      <trkpt lat="45.68568" lon="5.72772">
        <ele>453.4</ele>
        <time>2019-09-12T09:59:45Z</time>
      </trkpt>
      <trkpt lat="45.6856" lon="5.72776">
        <ele>453.4</ele>
        <time>2019-09-12T10:00:01Z</time>
      </trkpt>
      <trkpt lat="45.68555" lon="5.72779">
        <ele>453.5</ele>
        <time>2019-09-12T10:00:17Z</time>
      </trkpt>
      <trkpt lat="45.68561" lon="5.72775">
        <ele>453.5</ele>
        <time>2019-09-12T10:00:49Z</time>
      </trkpt>
      <trkpt lat="45.68564" lon="5.72771">
        <ele>453.5</ele>
        <time>2019-09-12T10:04:33Z</time>
      </trkpt>
      <trkpt lat="45.6856" lon="5.72773">
        <ele>454.2</ele>
        <time>2019-09-12T10:05:21Z</time>
      </trkpt>
      <trkpt lat="45.68571" lon="5.72768">
        <ele>454.9</ele>
        <time>2019-09-12T10:05:53Z</time>
      </trkpt>
      <trkpt lat="45.68575" lon="5.72765">
        <ele>455.8</ele>
        <time>2019-09-12T10:06:09Z</time>
      </trkpt>
      <trkpt lat="45.68569" lon="5.72769">
        <ele>460.5</ele>
        <time>2019-09-12T10:07:13Z</time>
      </trkpt>
      <trkpt lat="45.68565" lon="5.72773">
        <ele>462.1</ele>
        <time>2019-09-12T10:08:17Z</time>
      </trkpt>
      <trkpt lat="45.6856" lon="5.72771">
        <ele>462.5</ele>
        <time>2019-09-12T10:10:41Z</time>
      </trkpt>
      <trkpt lat="45.68565" lon="5.72768">
        <ele>461.6</ele>
        <time>2019-09-12T10:11:29Z</time>
      </trkpt>
      <trkpt lat="45.68559" lon="5.72773">
        <ele>459.9</ele>
        <time>2019-09-12T10:14:25Z</time>
      </trkpt>
      <trkpt lat="45.68564" lon="5.7277">
        <ele>454.3</ele>
        <time>2019-09-12T10:17:21Z</time>
      </trkpt>
      <trkpt lat="45.68569" lon="5.72767">
        <ele>451.9</ele>
        <time>2019-09-12T10:18:25Z</time>
      </trkpt>
      <trkpt lat="45.68564" lon="5.72769">
        <ele>451.5</ele>
        <time>2019-09-12T10:18:57Z</time>
      </trkpt>
      <trkpt lat="45.68557" lon="5.7277">
        <ele>451.1</ele>
        <time>2019-09-12T10:21:53Z</time>
      </trkpt>
      <trkpt lat="45.68562" lon="5.72767">
        <ele>451.4</ele>
        <time>2019-09-12T10:25:37Z</time>
      </trkpt>
      <trkpt lat="45.68566" lon="5.72769">
        <ele>453.2</ele>
        <time>2019-09-12T10:32:01Z</time>
      </trkpt>
      <trkpt lat="45.68561" lon="5.72772">
        <ele>452.7</ele>
        <time>2019-09-12T10:37:05Z</time>
      </trkpt>
      <trkpt lat="45.68557" lon="5.72776">
        <ele>452.8</ele>
        <time>2019-09-12T10:37:21Z</time>
      </trkpt>
      <trkpt lat="45.6855" lon="5.72775">
        <ele>453.2</ele>
        <time>2019-09-12T10:37:37Z</time>
      </trkpt>
      <trkpt lat="45.68543" lon="5.7277">
        <ele>453.7</ele>
        <time>2019-09-12T10:37:53Z</time>
      </trkpt>
      <trkpt lat="45.68535" lon="5.72764">
        <ele>454.6</ele>
        <time>2019-09-12T10:38:09Z</time>
      </trkpt>
      <trkpt lat="45.68529" lon="5.72758">
        <ele>455.1</ele>
        <time>2019-09-12T10:38:25Z</time>
      </trkpt>
      <trkpt lat="45.68522" lon="5.72749">
        <ele>455.8</ele>
        <time>2019-09-12T10:38:41Z</time>
      </trkpt>
      <trkpt lat="45.68516" lon="5.72743">
        <ele>456.4</ele>
        <time>2019-09-12T10:38:57Z</time>
      </trkpt>
      <trkpt lat="45.68508" lon="5.7274">
        <ele>457.2</ele>
        <time>2019-09-12T10:39:13Z</time>
      </trkpt>
      <trkpt lat="45.68499" lon="5.7274">
        <ele>457.8</ele>
        <time>2019-09-12T10:39:29Z</time>
      </trkpt>
      <trkpt lat="45.6849" lon="5.72741">
        <ele>458.4</ele>
        <time>2019-09-12T10:39:44Z</time>
      </trkpt>
      <trkpt lat="45.68479" lon="5.72742">
        <ele>459.1</ele>
        <time>2019-09-12T10:40:00Z</time>
      </trkpt>
      <trkpt lat="45.68467" lon="5.72741">
        <ele>459</ele>
        <time>2019-09-12T10:40:16Z</time>
      </trkpt>
      <trkpt lat="45.68454" lon="5.72746">
        <ele>459</ele>
        <time>2019-09-12T10:40:32Z</time>
      </trkpt>
      <trkpt lat="45.68442" lon="5.72753">
        <ele>459</ele>
        <time>2019-09-12T10:40:48Z</time>
      </trkpt>
      <trkpt lat="45.6843" lon="5.7276">
        <ele>459.1</ele>
        <time>2019-09-12T10:41:04Z</time>
      </trkpt>
      <trkpt lat="45.68419" lon="5.72767">
        <ele>459</ele>
        <time>2019-09-12T10:41:20Z</time>
      </trkpt>
      <trkpt lat="45.68409" lon="5.72768">
        <ele>458.5</ele>
        <time>2019-09-12T10:41:36Z</time>
      </trkpt>
      <trkpt lat="45.68398" lon="5.72768">
        <ele>458.4</ele>
        <time>2019-09-12T10:41:52Z</time>
      </trkpt>
      <trkpt lat="45.68387" lon="5.72766">
        <ele>457.9</ele>
        <time>2019-09-12T10:42:08Z</time>
      </trkpt>
      <trkpt lat="45.68379" lon="5.72763">
        <ele>457</ele>
        <time>2019-09-12T10:42:24Z</time>
      </trkpt>
      <trkpt lat="45.68367" lon="5.72759">
        <ele>456</ele>
        <time>2019-09-12T10:42:40Z</time>
      </trkpt>
      <trkpt lat="45.68356" lon="5.72754">
        <ele>454.6</ele>
        <time>2019-09-12T10:42:56Z</time>
      </trkpt>
      <trkpt lat="45.68343" lon="5.72751">
        <ele>453.5</ele>
        <time>2019-09-12T10:43:12Z</time>
      </trkpt>
      <trkpt lat="45.68329" lon="5.72747">
        <ele>452.5</ele>
        <time>2019-09-12T10:43:28Z</time>
      </trkpt>
      <trkpt lat="45.68319" lon="5.72739">
        <ele>451.3</ele>
        <time>2019-09-12T10:43:44Z</time>
      </trkpt>
      <trkpt lat="45.68308" lon="5.72727">
        <ele>450.4</ele>
        <time>2019-09-12T10:44:00Z</time>
      </trkpt>
      <trkpt lat="45.68297" lon="5.72717">
        <ele>450.1</ele>
        <time>2019-09-12T10:44:16Z</time>
      </trkpt>
      <trkpt lat="45.68287" lon="5.7271">
        <ele>450.2</ele>
        <time>2019-09-12T10:44:32Z</time>
      </trkpt>
      <trkpt lat="45.68274" lon="5.72702">
        <ele>449.4</ele>
        <time>2019-09-12T10:44:48Z</time>
      </trkpt>
      <trkpt lat="45.68258" lon="5.72697">
        <ele>448.8</ele>
        <time>2019-09-12T10:45:04Z</time>
      </trkpt>
      <trkpt lat="45.68242" lon="5.72694">
        <ele>449.1</ele>
        <time>2019-09-12T10:45:20Z</time>
      </trkpt>
      <trkpt lat="45.68227" lon="5.72694">
        <ele>449.1</ele>
        <time>2019-09-12T10:45:36Z</time>
      </trkpt>
      <trkpt lat="45.68215" lon="5.72696">
        <ele>449.2</ele>
        <time>2019-09-12T10:45:52Z</time>
      </trkpt>
      <trkpt lat="45.68202" lon="5.72701">
        <ele>449.6</ele>
        <time>2019-09-12T10:46:08Z</time>
      </trkpt>
      <trkpt lat="45.68192" lon="5.72707">
        <ele>450.1</ele>
        <time>2019-09-12T10:46:24Z</time>
      </trkpt>
      <trkpt lat="45.68181" lon="5.72716">
        <ele>450.9</ele>
        <time>2019-09-12T10:46:40Z</time>
      </trkpt>
      <trkpt lat="45.68175" lon="5.72728">
        <ele>451.7</ele>
        <time>2019-09-12T10:46:56Z</time>
      </trkpt>
      <trkpt lat="45.68169" lon="5.72743">
        <ele>452.1</ele>
        <time>2019-09-12T10:47:12Z</time>
      </trkpt>
      <trkpt lat="45.68164" lon="5.72757">
        <ele>452.6</ele>
        <time>2019-09-12T10:47:28Z</time>
      </trkpt>
      <trkpt lat="45.68158" lon="5.72771">
        <ele>453.1</ele>
        <time>2019-09-12T10:47:44Z</time>
      </trkpt>
      <trkpt lat="45.68148" lon="5.72784">
        <ele>453.8</ele>
        <time>2019-09-12T10:48:00Z</time>
      </trkpt>
      <trkpt lat="45.68141" lon="5.72796">
        <ele>454.2</ele>
        <time>2019-09-12T10:48:16Z</time>
      </trkpt>
      <trkpt lat="45.68131" lon="5.72806">
        <ele>454.3</ele>
        <time>2019-09-12T10:48:32Z</time>
      </trkpt>
      <trkpt lat="45.68123" lon="5.72817">
        <ele>454.2</ele>
        <time>2019-09-12T10:48:48Z</time>
      </trkpt>
      <trkpt lat="45.68113" lon="5.72828">
        <ele>453.8</ele>
        <time>2019-09-12T10:49:04Z</time>
      </trkpt>
      <trkpt lat="45.68103" lon="5.72838">
        <ele>453.1</ele>
        <time>2019-09-12T10:49:20Z</time>
      </trkpt>
      <trkpt lat="45.68093" lon="5.72848">
        <ele>452.2</ele>
        <time>2019-09-12T10:49:36Z</time>
      </trkpt>
      <trkpt lat="45.68082" lon="5.72857">
        <ele>451.3</ele>
        <time>2019-09-12T10:49:52Z</time>
      </trkpt>
      <trkpt lat="45.68072" lon="5.72867">
        <ele>450.3</ele>
        <time>2019-09-12T10:50:08Z</time>
      </trkpt>
      <trkpt lat="45.68062" lon="5.72877">
        <ele>449.4</ele>
        <time>2019-09-12T10:50:24Z</time>
      </trkpt>
      <trkpt lat="45.6805" lon="5.72885">
        <ele>448.4</ele>
        <time>2019-09-12T10:50:40Z</time>
      </trkpt>
      <trkpt lat="45.68041" lon="5.72894">
        <ele>447.1</ele>
        <time>2019-09-12T10:50:56Z</time>
      </trkpt>
      <trkpt lat="45.68032" lon="5.729">
        <ele>445.9</ele>
        <time>2019-09-12T10:51:12Z</time>
      </trkpt>
      <trkpt lat="45.68021" lon="5.72906">
        <ele>444.6</ele>
        <time>2019-09-12T10:51:28Z</time>
      </trkpt>
      <trkpt lat="45.68009" lon="5.72915">
        <ele>443.2</ele>
        <time>2019-09-12T10:51:44Z</time>
      </trkpt>
      <trkpt lat="45.68002" lon="5.72925">
        <ele>441.7</ele>
        <time>2019-09-12T10:52:00Z</time>
      </trkpt>
      <trkpt lat="45.67995" lon="5.72933">
        <ele>440.4</ele>
        <time>2019-09-12T10:52:16Z</time>
      </trkpt>
      <trkpt lat="45.6799" lon="5.72945">
        <ele>439.2</ele>
        <time>2019-09-12T10:52:32Z</time>
      </trkpt>
      <trkpt lat="45.67989" lon="5.72955">
        <ele>437.8</ele>
        <time>2019-09-12T10:52:48Z</time>
      </trkpt>
      <trkpt lat="45.67985" lon="5.72964">
        <ele>436.7</ele>
        <time>2019-09-12T10:53:04Z</time>
      </trkpt>
      <trkpt lat="45.67978" lon="5.72974">
        <ele>435.9</ele>
        <time>2019-09-12T10:53:20Z</time>
      </trkpt>
      <trkpt lat="45.67969" lon="5.72984">
        <ele>434.9</ele>
        <time>2019-09-12T10:53:36Z</time>
      </trkpt>
      <trkpt lat="45.67959" lon="5.72996">
        <ele>433.8</ele>
        <time>2019-09-12T10:53:52Z</time>
      </trkpt>
      <trkpt lat="45.6795" lon="5.73005">
        <ele>432.9</ele>
        <time>2019-09-12T10:54:08Z</time>
      </trkpt>
      <trkpt lat="45.67939" lon="5.73013">
        <ele>432.1</ele>
        <time>2019-09-12T10:54:24Z</time>
      </trkpt>
      <trkpt lat="45.67927" lon="5.7302">
        <ele>430.8</ele>
        <time>2019-09-12T10:54:40Z</time>
      </trkpt>
      <trkpt lat="45.67914" lon="5.73028">
        <ele>429.9</ele>
        <time>2019-09-12T10:54:56Z</time>
      </trkpt>
      <trkpt lat="45.67901" lon="5.73033">
        <ele>428.3</ele>
        <time>2019-09-12T10:55:12Z</time>
      </trkpt>
      <trkpt lat="45.67889" lon="5.73037">
        <ele>426.8</ele>
        <time>2019-09-12T10:55:28Z</time>
      </trkpt>
      <trkpt lat="45.67879" lon="5.73042">
        <ele>425.5</ele>
        <time>2019-09-12T10:55:44Z</time>
      </trkpt>
      <trkpt lat="45.67868" lon="5.7305">
        <ele>424.3</ele>
        <time>2019-09-12T10:56:00Z</time>
      </trkpt>
      <trkpt lat="45.67856" lon="5.73058">
        <ele>422.8</ele>
        <time>2019-09-12T10:56:16Z</time>
      </trkpt>
      <trkpt lat="45.67844" lon="5.73063">
        <ele>421.3</ele>
        <time>2019-09-12T10:56:32Z</time>
      </trkpt>
      <trkpt lat="45.6783" lon="5.7307">
        <ele>420.1</ele>
        <time>2019-09-12T10:56:48Z</time>
      </trkpt>
      <trkpt lat="45.67816" lon="5.73075">
        <ele>418.5</ele>
        <time>2019-09-12T10:57:04Z</time>
      </trkpt>
      <trkpt lat="45.67801" lon="5.73077">
        <ele>417.5</ele>
        <time>2019-09-12T10:57:20Z</time>
      </trkpt>
      <trkpt lat="45.67787" lon="5.73079">
        <ele>416.6</ele>
        <time>2019-09-12T10:57:36Z</time>
      </trkpt>
      <trkpt lat="45.67773" lon="5.73085">
        <ele>415.5</ele>
        <time>2019-09-12T10:57:52Z</time>
      </trkpt>
      <trkpt lat="45.67761" lon="5.73095">
        <ele>414.7</ele>
        <time>2019-09-12T10:58:08Z</time>
      </trkpt>
      <trkpt lat="45.67748" lon="5.73106">
        <ele>413.7</ele>
        <time>2019-09-12T10:58:24Z</time>
      </trkpt>
      <trkpt lat="45.67736" lon="5.73117">
        <ele>412.7</ele>
        <time>2019-09-12T10:58:40Z</time>
      </trkpt>
      <trkpt lat="45.67723" lon="5.73129">
        <ele>412</ele>
        <time>2019-09-12T10:58:56Z</time>
      </trkpt>
      <trkpt lat="45.67713" lon="5.73143">
        <ele>411.2</ele>
        <time>2019-09-12T10:59:12Z</time>
      </trkpt>
      <trkpt lat="45.67704" lon="5.73157">
        <ele>410.3</ele>
        <time>2019-09-12T10:59:28Z</time>
      </trkpt>
      <trkpt lat="45.677" lon="5.73165">
        <ele>409.3</ele>
        <time>2019-09-12T10:59:44Z</time>
      </trkpt>
      <trkpt lat="45.67697" lon="5.73171">
        <ele>408.7</ele>
        <time>2019-09-12T10:59:59Z</time>
      </trkpt>
      <trkpt lat="45.67695" lon="5.73176">
        <ele>407.6</ele>
        <time>2019-09-12T11:00:31Z</time>
      </trkpt>
      <trkpt lat="45.67699" lon="5.73176">
        <ele>407.7</ele>
        <time>2019-09-12T11:00:47Z</time>
      </trkpt>
      <trkpt lat="45.67707" lon="5.73175">
        <ele>408.2</ele>
        <time>2019-09-12T11:01:03Z</time>
      </trkpt>
      <trkpt lat="45.67714" lon="5.73178">
        <ele>408.2</ele>
        <time>2019-09-12T11:01:19Z</time>
      </trkpt>
      <trkpt lat="45.67719" lon="5.73182">
        <ele>407.9</ele>
        <time>2019-09-12T11:01:51Z</time>
      </trkpt>
      <trkpt lat="45.67724" lon="5.7318">
        <ele>407.8</ele>
        <time>2019-09-12T11:02:55Z</time>
      </trkpt>
      <trkpt lat="45.67731" lon="5.7318">
        <ele>407.8</ele>
        <time>2019-09-12T11:03:11Z</time>
      </trkpt>
      <trkpt lat="45.67742" lon="5.73182">
        <ele>408</ele>
        <time>2019-09-12T11:03:27Z</time>
      </trkpt>
      <trkpt lat="45.67754" lon="5.73183">
        <ele>408.3</ele>
        <time>2019-09-12T11:03:43Z</time>
      </trkpt>
      <trkpt lat="45.67765" lon="5.73184">
        <ele>408.8</ele>
        <time>2019-09-12T11:03:59Z</time>
      </trkpt>
      <trkpt lat="45.67777" lon="5.73183">
        <ele>409.5</ele>
        <time>2019-09-12T11:04:15Z</time>
      </trkpt>
      <trkpt lat="45.67788" lon="5.73184">
        <ele>409.9</ele>
        <time>2019-09-12T11:04:31Z</time>
      </trkpt>
      <trkpt lat="45.678" lon="5.73188">
        <ele>410.3</ele>
        <time>2019-09-12T11:04:47Z</time>
      </trkpt>
      <trkpt lat="45.67812" lon="5.73194">
        <ele>411.1</ele>
        <time>2019-09-12T11:05:03Z</time>
      </trkpt>
      <trkpt lat="45.67824" lon="5.732">
        <ele>412</ele>
        <time>2019-09-12T11:05:19Z</time>
      </trkpt>
      <trkpt lat="45.67836" lon="5.73205">
        <ele>412.9</ele>
        <time>2019-09-12T11:05:35Z</time>
      </trkpt>
      <trkpt lat="45.67849" lon="5.73209">
        <ele>413.4</ele>
        <time>2019-09-12T11:05:51Z</time>
      </trkpt>
      <trkpt lat="45.67864" lon="5.73212">
        <ele>414</ele>
        <time>2019-09-12T11:06:07Z</time>
      </trkpt>
      <trkpt lat="45.67878" lon="5.73215">
        <ele>414.2</ele>
        <time>2019-09-12T11:06:23Z</time>
      </trkpt>
      <trkpt lat="45.67892" lon="5.73221">
        <ele>414.6</ele>
        <time>2019-09-12T11:06:39Z</time>
      </trkpt>
      <trkpt lat="45.67904" lon="5.73224">
        <ele>414.9</ele>
        <time>2019-09-12T11:06:55Z</time>
      </trkpt>
      <trkpt lat="45.67918" lon="5.73229">
        <ele>415.2</ele>
        <time>2019-09-12T11:07:11Z</time>
      </trkpt>
      <trkpt lat="45.67934" lon="5.73235">
        <ele>415.4</ele>
        <time>2019-09-12T11:07:27Z</time>
      </trkpt>
      <trkpt lat="45.67948" lon="5.73243">
        <ele>415.5</ele>
        <time>2019-09-12T11:07:43Z</time>
      </trkpt>
      <trkpt lat="45.67961" lon="5.73251">
        <ele>415.8</ele>
        <time>2019-09-12T11:07:59Z</time>
      </trkpt>
      <trkpt lat="45.67973" lon="5.73261">
        <ele>415.9</ele>
        <time>2019-09-12T11:08:15Z</time>
      </trkpt>
      <trkpt lat="45.67986" lon="5.73271">
        <ele>416</ele>
        <time>2019-09-12T11:08:30Z</time>
      </trkpt>
      <trkpt lat="45.67997" lon="5.73282">
        <ele>416</ele>
        <time>2019-09-12T11:08:47Z</time>
      </trkpt>
      <trkpt lat="45.68009" lon="5.73294">
        <ele>415.9</ele>
        <time>2019-09-12T11:09:03Z</time>
      </trkpt>
      <trkpt lat="45.68025" lon="5.73301">
        <ele>415.6</ele>
        <time>2019-09-12T11:09:19Z</time>
      </trkpt>
      <trkpt lat="45.68041" lon="5.73307">
        <ele>415.2</ele>
        <time>2019-09-12T11:09:35Z</time>
      </trkpt>
      <trkpt lat="45.68057" lon="5.7331">
        <ele>414.7</ele>
        <time>2019-09-12T11:09:51Z</time>
      </trkpt>
      <trkpt lat="45.68073" lon="5.7331">
        <ele>414.3</ele>
        <time>2019-09-12T11:10:07Z</time>
      </trkpt>
      <trkpt lat="45.68088" lon="5.7331">
        <ele>413.5</ele>
        <time>2019-09-12T11:10:23Z</time>
      </trkpt>
      <trkpt lat="45.68099" lon="5.73307">
        <ele>412.5</ele>
        <time>2019-09-12T11:10:39Z</time>
      </trkpt>
      <trkpt lat="45.68111" lon="5.73306">
        <ele>411.7</ele>
        <time>2019-09-12T11:10:55Z</time>
      </trkpt>
      <trkpt lat="45.68124" lon="5.73306">
        <ele>410.5</ele>
        <time>2019-09-12T11:11:11Z</time>
      </trkpt>
      <trkpt lat="45.68135" lon="5.73309">
        <ele>409.3</ele>
        <time>2019-09-12T11:11:27Z</time>
      </trkpt>
      <trkpt lat="45.68145" lon="5.73316">
        <ele>407.9</ele>
        <time>2019-09-12T11:11:43Z</time>
      </trkpt>
      <trkpt lat="45.68155" lon="5.73324">
        <ele>406.4</ele>
        <time>2019-09-12T11:11:59Z</time>
      </trkpt>
      <trkpt lat="45.68164" lon="5.73336">
        <ele>405.1</ele>
        <time>2019-09-12T11:12:15Z</time>
      </trkpt>
      <trkpt lat="45.68174" lon="5.73347">
        <ele>403.6</ele>
        <time>2019-09-12T11:12:31Z</time>
      </trkpt>
      <trkpt lat="45.68185" lon="5.73358">
        <ele>401.6</ele>
        <time>2019-09-12T11:12:47Z</time>
      </trkpt>
      <trkpt lat="45.68196" lon="5.73368">
        <ele>399.6</ele>
        <time>2019-09-12T11:13:03Z</time>
      </trkpt>
      <trkpt lat="45.68208" lon="5.73372">
        <ele>398</ele>
        <time>2019-09-12T11:13:19Z</time>
      </trkpt>
      <trkpt lat="45.68221" lon="5.73371">
        <ele>396.5</ele>
        <time>2019-09-12T11:13:35Z</time>
      </trkpt>
      <trkpt lat="45.68233" lon="5.73372">
        <ele>395.1</ele>
        <time>2019-09-12T11:13:51Z</time>
      </trkpt>
      <trkpt lat="45.68243" lon="5.73376">
        <ele>394.3</ele>
        <time>2019-09-12T11:14:07Z</time>
      </trkpt>
      <trkpt lat="45.6825" lon="5.7338">
        <ele>393.8</ele>
        <time>2019-09-12T11:14:23Z</time>
      </trkpt>
      <trkpt lat="45.68255" lon="5.73389">
        <ele>393.7</ele>
        <time>2019-09-12T11:14:39Z</time>
      </trkpt>
      <trkpt lat="45.68259" lon="5.73394">
        <ele>393.2</ele>
        <time>2019-09-12T11:14:55Z</time>
      </trkpt>
      <trkpt lat="45.68267" lon="5.73399">
        <ele>391.8</ele>
        <time>2019-09-12T11:15:27Z</time>
      </trkpt>
      <trkpt lat="45.68272" lon="5.73402">
        <ele>390.5</ele>
        <time>2019-09-12T11:16:15Z</time>
      </trkpt>
      <trkpt lat="45.68274" lon="5.73418">
        <ele>390.1</ele>
        <time>2019-09-12T11:17:35Z</time>
      </trkpt>
      <trkpt lat="45.68278" lon="5.73432">
        <ele>389.9</ele>
        <time>2019-09-12T11:17:51Z</time>
      </trkpt>
      <trkpt lat="45.68282" lon="5.73449">
        <ele>389.6</ele>
        <time>2019-09-12T11:18:07Z</time>
      </trkpt>
      <trkpt lat="45.68288" lon="5.73465">
        <ele>389</ele>
        <time>2019-09-12T11:18:23Z</time>
      </trkpt>
      <trkpt lat="45.68293" lon="5.73483">
        <ele>388.4</ele>
        <time>2019-09-12T11:18:39Z</time>
      </trkpt>
      <trkpt lat="45.68295" lon="5.73499">
        <ele>387.9</ele>
        <time>2019-09-12T11:18:55Z</time>
      </trkpt>
      <trkpt lat="45.68298" lon="5.73517">
        <ele>387.2</ele>
        <time>2019-09-12T11:19:11Z</time>
      </trkpt>
      <trkpt lat="45.68301" lon="5.73535">
        <ele>386.2</ele>
        <time>2019-09-12T11:19:27Z</time>
      </trkpt>
      <trkpt lat="45.68303" lon="5.73552">
        <ele>385.3</ele>
        <time>2019-09-12T11:19:43Z</time>
      </trkpt>
      <trkpt lat="45.68305" lon="5.73571">
        <ele>384</ele>
        <time>2019-09-12T11:19:59Z</time>
      </trkpt>
      <trkpt lat="45.68306" lon="5.73591">
        <ele>382.2</ele>
        <time>2019-09-12T11:20:15Z</time>
      </trkpt>
      <trkpt lat="45.68307" lon="5.7361">
        <ele>380.6</ele>
        <time>2019-09-12T11:20:31Z</time>
      </trkpt>
      <trkpt lat="45.68311" lon="5.73628">
        <ele>378.9</ele>
        <time>2019-09-12T11:20:47Z</time>
      </trkpt>
      <trkpt lat="45.68315" lon="5.73647">
        <ele>377.4</ele>
        <time>2019-09-12T11:21:03Z</time>
      </trkpt>
      <trkpt lat="45.68318" lon="5.73666">
        <ele>375.8</ele>
        <time>2019-09-12T11:21:19Z</time>
      </trkpt>
      <trkpt lat="45.68318" lon="5.73682">
        <ele>374</ele>
        <time>2019-09-12T11:21:35Z</time>
      </trkpt>
      <trkpt lat="45.68315" lon="5.73698">
        <ele>372.8</ele>
        <time>2019-09-12T11:21:51Z</time>
      </trkpt>
      <trkpt lat="45.68316" lon="5.73717">
        <ele>371.4</ele>
        <time>2019-09-12T11:22:07Z</time>
      </trkpt>
      <trkpt lat="45.68316" lon="5.73734">
        <ele>369.7</ele>
        <time>2019-09-12T11:22:23Z</time>
      </trkpt>
      <trkpt lat="45.68315" lon="5.73755">
        <ele>367.9</ele>
        <time>2019-09-12T11:22:39Z</time>
      </trkpt>
      <trkpt lat="45.68316" lon="5.73775">
        <ele>366.8</ele>
        <time>2019-09-12T11:22:55Z</time>
      </trkpt>
      <trkpt lat="45.68319" lon="5.73797">
        <ele>366.3</ele>
        <time>2019-09-12T11:23:11Z</time>
      </trkpt>
      <trkpt lat="45.68322" lon="5.73818">
        <ele>365.2</ele>
        <time>2019-09-12T11:23:27Z</time>
      </trkpt>
      <trkpt lat="45.68327" lon="5.73839">
        <ele>363.8</ele>
        <time>2019-09-12T11:23:43Z</time>
      </trkpt>
      <trkpt lat="45.68337" lon="5.73858">
        <ele>362.9</ele>
        <time>2019-09-12T11:23:59Z</time>
      </trkpt>
      <trkpt lat="45.68347" lon="5.73876">
        <ele>362.3</ele>
        <time>2019-09-12T11:24:15Z</time>
      </trkpt>
      <trkpt lat="45.68357" lon="5.7389">
        <ele>362.2</ele>
        <time>2019-09-12T11:24:31Z</time>
      </trkpt>
      <trkpt lat="45.68367" lon="5.73903">
        <ele>361.7</ele>
        <time>2019-09-12T11:24:47Z</time>
      </trkpt>
      <trkpt lat="45.68379" lon="5.73914">
        <ele>361.6</ele>
        <time>2019-09-12T11:25:03Z</time>
      </trkpt>
      <trkpt lat="45.68393" lon="5.73926">
        <ele>361.4</ele>
        <time>2019-09-12T11:25:19Z</time>
      </trkpt>
      <trkpt lat="45.68406" lon="5.73941">
        <ele>360.9</ele>
        <time>2019-09-12T11:25:35Z</time>
      </trkpt>
      <trkpt lat="45.68418" lon="5.73957">
        <ele>360</ele>
        <time>2019-09-12T11:25:51Z</time>
      </trkpt>
      <trkpt lat="45.68429" lon="5.73974">
        <ele>359.3</ele>
        <time>2019-09-12T11:26:07Z</time>
      </trkpt>
      <trkpt lat="45.68441" lon="5.73988">
        <ele>358.9</ele>
        <time>2019-09-12T11:26:23Z</time>
      </trkpt>
      <trkpt lat="45.68451" lon="5.74002">
        <ele>358.6</ele>
        <time>2019-09-12T11:26:39Z</time>
      </trkpt>
      <trkpt lat="45.68464" lon="5.74017">
        <ele>357.9</ele>
        <time>2019-09-12T11:26:55Z</time>
      </trkpt>
      <trkpt lat="45.68476" lon="5.7403">
        <ele>356.8</ele>
        <time>2019-09-12T11:27:10Z</time>
      </trkpt>
      <trkpt lat="45.68489" lon="5.74042">
        <ele>356.2</ele>
        <time>2019-09-12T11:27:26Z</time>
      </trkpt>
      <trkpt lat="45.68501" lon="5.74053">
        <ele>355.2</ele>
        <time>2019-09-12T11:27:42Z</time>
      </trkpt>
      <trkpt lat="45.68513" lon="5.74064">
        <ele>354.5</ele>
        <time>2019-09-12T11:27:58Z</time>
      </trkpt>
      <trkpt lat="45.68527" lon="5.74075">
        <ele>353.7</ele>
        <time>2019-09-12T11:28:14Z</time>
      </trkpt>
      <trkpt lat="45.68539" lon="5.74087">
        <ele>352.6</ele>
        <time>2019-09-12T11:28:30Z</time>
      </trkpt>
      <trkpt lat="45.68552" lon="5.74099">
        <ele>351.4</ele>
        <time>2019-09-12T11:28:46Z</time>
      </trkpt>
      <trkpt lat="45.68563" lon="5.74114">
        <ele>350.4</ele>
        <time>2019-09-12T11:29:02Z</time>
      </trkpt>
      <trkpt lat="45.6857" lon="5.74131">
        <ele>349.8</ele>
        <time>2019-09-12T11:29:18Z</time>
      </trkpt>
      <trkpt lat="45.6858" lon="5.74146">
        <ele>349.4</ele>
        <time>2019-09-12T11:29:34Z</time>
      </trkpt>
      <trkpt lat="45.68592" lon="5.74157">
        <ele>348.7</ele>
        <time>2019-09-12T11:29:50Z</time>
      </trkpt>
      <trkpt lat="45.68606" lon="5.74168">
        <ele>348.1</ele>
        <time>2019-09-12T11:30:06Z</time>
      </trkpt>
      <trkpt lat="45.68617" lon="5.74176">
        <ele>347.5</ele>
        <time>2019-09-12T11:30:22Z</time>
      </trkpt>
      <trkpt lat="45.68631" lon="5.74181">
        <ele>346.8</ele>
        <time>2019-09-12T11:30:38Z</time>
      </trkpt>
      <trkpt lat="45.68645" lon="5.74187">
        <ele>346</ele>
        <time>2019-09-12T11:30:54Z</time>
      </trkpt>
      <trkpt lat="45.68659" lon="5.74189">
        <ele>345</ele>
        <time>2019-09-12T11:31:10Z</time>
      </trkpt>
      <trkpt lat="45.68673" lon="5.74184">
        <ele>343.4</ele>
        <time>2019-09-12T11:31:26Z</time>
      </trkpt>
      <trkpt lat="45.68685" lon="5.7418">
        <ele>341.9</ele>
        <time>2019-09-12T11:31:42Z</time>
      </trkpt>
      <trkpt lat="45.68699" lon="5.74177">
        <ele>340.4</ele>
        <time>2019-09-12T11:31:58Z</time>
      </trkpt>
      <trkpt lat="45.68713" lon="5.74175">
        <ele>338.7</ele>
        <time>2019-09-12T11:32:14Z</time>
      </trkpt>
      <trkpt lat="45.68728" lon="5.74175">
        <ele>337.6</ele>
        <time>2019-09-12T11:32:30Z</time>
      </trkpt>
      <trkpt lat="45.68743" lon="5.74172">
        <ele>336.4</ele>
        <time>2019-09-12T11:32:46Z</time>
      </trkpt>
      <trkpt lat="45.68758" lon="5.74167">
        <ele>335.4</ele>
        <time>2019-09-12T11:33:02Z</time>
      </trkpt>
      <trkpt lat="45.68772" lon="5.74164">
        <ele>334.6</ele>
        <time>2019-09-12T11:33:18Z</time>
      </trkpt>
      <trkpt lat="45.68786" lon="5.74165">
        <ele>333.3</ele>
        <time>2019-09-12T11:33:34Z</time>
      </trkpt>
      <trkpt lat="45.68795" lon="5.74165">
        <ele>332.3</ele>
        <time>2019-09-12T11:33:50Z</time>
      </trkpt>
      <trkpt lat="45.688" lon="5.74165">
        <ele>331.6</ele>
        <time>2019-09-12T11:34:06Z</time>
      </trkpt>
      <trkpt lat="45.68806" lon="5.74165">
        <ele>330.3</ele>
        <time>2019-09-12T11:34:38Z</time>
      </trkpt>
      <trkpt lat="45.6881" lon="5.74161">
        <ele>327.4</ele>
        <time>2019-09-12T11:35:42Z</time>
      </trkpt>
      <trkpt lat="45.6881" lon="5.74153">
        <ele>324</ele>
        <time>2019-09-12T11:37:18Z</time>
      </trkpt>
      <trkpt lat="45.68816" lon="5.74143">
        <ele>323.7</ele>
        <time>2019-09-12T11:37:33Z</time>
      </trkpt>
      <trkpt lat="45.68819" lon="5.74132">
        <ele>323.3</ele>
        <time>2019-09-12T11:37:48Z</time>
      </trkpt>
      <trkpt lat="45.6882" lon="5.74117">
        <ele>323.4</ele>
        <time>2019-09-12T11:38:04Z</time>
      </trkpt>
      <trkpt lat="45.6882" lon="5.74101">
        <ele>323.7</ele>
        <time>2019-09-12T11:38:20Z</time>
      </trkpt>
      <trkpt lat="45.68816" lon="5.74087">
        <ele>324.1</ele>
        <time>2019-09-12T11:38:36Z</time>
      </trkpt>
      <trkpt lat="45.68812" lon="5.74073">
        <ele>324.8</ele>
        <time>2019-09-12T11:38:52Z</time>
      </trkpt>
      <trkpt lat="45.6881" lon="5.74061">
        <ele>325</ele>
        <time>2019-09-12T11:39:08Z</time>
      </trkpt>
      <trkpt lat="45.68813" lon="5.74053">
        <ele>325.4</ele>
        <time>2019-09-12T11:39:24Z</time>
      </trkpt>
      <trkpt lat="45.68819" lon="5.74046">
        <ele>325.9</ele>
        <time>2019-09-12T11:39:40Z</time>
      </trkpt>
      <trkpt lat="45.68829" lon="5.74044">
        <ele>326.7</ele>
        <time>2019-09-12T11:39:56Z</time>
      </trkpt>
      <trkpt lat="45.6884" lon="5.74041">
        <ele>327.5</ele>
        <time>2019-09-12T11:40:12Z</time>
      </trkpt>
      <trkpt lat="45.68849" lon="5.74041">
        <ele>328.7</ele>
        <time>2019-09-12T11:40:28Z</time>
      </trkpt>
      <trkpt lat="45.6886" lon="5.74039">
        <ele>330</ele>
        <time>2019-09-12T11:40:44Z</time>
      </trkpt>
      <trkpt lat="45.68872" lon="5.74038">
        <ele>331.3</ele>
        <time>2019-09-12T11:41:00Z</time>
      </trkpt>
      <trkpt lat="45.68883" lon="5.74038">
        <ele>333</ele>
        <time>2019-09-12T11:41:16Z</time>
      </trkpt>
      <trkpt lat="45.68893" lon="5.74036">
        <ele>335.1</ele>
        <time>2019-09-12T11:41:32Z</time>
      </trkpt>
      <trkpt lat="45.68905" lon="5.74035">
        <ele>336.9</ele>
        <time>2019-09-12T11:41:48Z</time>
      </trkpt>
      <trkpt lat="45.68916" lon="5.74029">
        <ele>338.6</ele>
        <time>2019-09-12T11:42:04Z</time>
      </trkpt>
      <trkpt lat="45.68928" lon="5.74024">
        <ele>340.7</ele>
        <time>2019-09-12T11:42:20Z</time>
      </trkpt>
      <trkpt lat="45.68939" lon="5.74015">
        <ele>342.6</ele>
        <time>2019-09-12T11:42:36Z</time>
      </trkpt>
      <trkpt lat="45.68946" lon="5.74003">
        <ele>344.2</ele>
        <time>2019-09-12T11:42:52Z</time>
      </trkpt>
      <trkpt lat="45.68948" lon="5.73992">
        <ele>345.9</ele>
        <time>2019-09-12T11:43:08Z</time>
      </trkpt>
      <trkpt lat="45.68948" lon="5.7398">
        <ele>347.8</ele>
        <time>2019-09-12T11:43:24Z</time>
      </trkpt>
      <trkpt lat="45.68949" lon="5.73971">
        <ele>349.4</ele>
        <time>2019-09-12T11:43:40Z</time>
      </trkpt>
      <trkpt lat="45.68953" lon="5.73962">
        <ele>350.6</ele>
        <time>2019-09-12T11:43:56Z</time>
      </trkpt>
      <trkpt lat="45.68957" lon="5.73952">
        <ele>351.8</ele>
        <time>2019-09-12T11:44:12Z</time>
      </trkpt>
      <trkpt lat="45.68959" lon="5.73937">
        <ele>353.4</ele>
        <time>2019-09-12T11:44:28Z</time>
      </trkpt>
      <trkpt lat="45.68959" lon="5.73925">
        <ele>354.9</ele>
        <time>2019-09-12T11:44:44Z</time>
      </trkpt>
      <trkpt lat="45.68956" lon="5.73908">
        <ele>356.7</ele>
        <time>2019-09-12T11:45:00Z</time>
      </trkpt>
      <trkpt lat="45.68952" lon="5.73894">
        <ele>358.7</ele>
        <time>2019-09-12T11:45:16Z</time>
      </trkpt>
      <trkpt lat="45.68947" lon="5.73879">
        <ele>360.8</ele>
        <time>2019-09-12T11:45:32Z</time>
      </trkpt>
      <trkpt lat="45.68942" lon="5.73866">
        <ele>362.9</ele>
        <time>2019-09-12T11:45:48Z</time>
      </trkpt>
      <trkpt lat="45.68938" lon="5.73854">
        <ele>365.2</ele>
        <time>2019-09-12T11:46:04Z</time>
      </trkpt>
      <trkpt lat="45.68935" lon="5.73842">
        <ele>367.9</ele>
        <time>2019-09-12T11:46:20Z</time>
      </trkpt>
      <trkpt lat="45.68932" lon="5.7383">
        <ele>370.4</ele>
        <time>2019-09-12T11:46:36Z</time>
      </trkpt>
      <trkpt lat="45.68934" lon="5.73816">
        <ele>373</ele>
        <time>2019-09-12T11:46:52Z</time>
      </trkpt>
      <trkpt lat="45.68936" lon="5.73802">
        <ele>375.2</ele>
        <time>2019-09-12T11:47:08Z</time>
      </trkpt>
      <trkpt lat="45.68941" lon="5.73792">
        <ele>377.1</ele>
        <time>2019-09-12T11:47:24Z</time>
      </trkpt>
      <trkpt lat="45.68949" lon="5.73781">
        <ele>378.9</ele>
        <time>2019-09-12T11:47:40Z</time>
      </trkpt>
      <trkpt lat="45.68956" lon="5.7377">
        <ele>380.7</ele>
        <time>2019-09-12T11:47:56Z</time>
      </trkpt>
      <trkpt lat="45.68963" lon="5.73757">
        <ele>382.4</ele>
        <time>2019-09-12T11:48:12Z</time>
      </trkpt>
      <trkpt lat="45.68968" lon="5.73741">
        <ele>383.9</ele>
        <time>2019-09-12T11:48:28Z</time>
      </trkpt>
      <trkpt lat="45.68975" lon="5.73722">
        <ele>384.7</ele>
        <time>2019-09-12T11:48:44Z</time>
      </trkpt>
      <trkpt lat="45.68978" lon="5.7371">
        <ele>385.7</ele>
        <time>2019-09-12T11:49:00Z</time>
      </trkpt>
      <trkpt lat="45.68978" lon="5.73702">
        <ele>386.6</ele>
        <time>2019-09-12T11:49:16Z</time>
      </trkpt>
      <trkpt lat="45.68978" lon="5.73694">
        <ele>387.4</ele>
        <time>2019-09-12T11:49:48Z</time>
      </trkpt>
      <trkpt lat="45.69013" lon="5.7371">
        <ele>386.2</ele>
        <time>2019-09-12T11:51:08Z</time>
      </trkpt>
      <trkpt lat="45.69021" lon="5.73715">
        <ele>385.6</ele>
        <time>2019-09-12T11:51:24Z</time>
      </trkpt>
      <trkpt lat="45.69015" lon="5.73706">
        <ele>383.9</ele>
        <time>2019-09-12T11:51:56Z</time>
      </trkpt>
      <trkpt lat="45.69025" lon="5.73705">
        <ele>381.2</ele>
        <time>2019-09-12T11:52:28Z</time>
      </trkpt>
      <trkpt lat="45.69033" lon="5.73706">
        <ele>380.1</ele>
        <time>2019-09-12T11:52:44Z</time>
      </trkpt>
      <trkpt lat="45.69046" lon="5.7371">
        <ele>379.1</ele>
        <time>2019-09-12T11:53:00Z</time>
      </trkpt>
      <trkpt lat="45.6906" lon="5.73714">
        <ele>378.4</ele>
        <time>2019-09-12T11:53:16Z</time>
      </trkpt>
      <trkpt lat="45.69072" lon="5.73718">
        <ele>377.8</ele>
        <time>2019-09-12T11:53:31Z</time>
      </trkpt>
      <trkpt lat="45.69085" lon="5.73724">
        <ele>377.5</ele>
        <time>2019-09-12T11:53:47Z</time>
      </trkpt>
      <trkpt lat="45.691" lon="5.73734">
        <ele>376.8</ele>
        <time>2019-09-12T11:54:03Z</time>
      </trkpt>
      <trkpt lat="45.6911" lon="5.73747">
        <ele>376.9</ele>
        <time>2019-09-12T11:54:19Z</time>
      </trkpt>
      <trkpt lat="45.69119" lon="5.73764">
        <ele>377</ele>
        <time>2019-09-12T11:54:35Z</time>
      </trkpt>
      <trkpt lat="45.69124" lon="5.73782">
        <ele>376.9</ele>
        <time>2019-09-12T11:54:51Z</time>
      </trkpt>
      <trkpt lat="45.6913" lon="5.73802">
        <ele>376.9</ele>
        <time>2019-09-12T11:55:07Z</time>
      </trkpt>
      <trkpt lat="45.69135" lon="5.73823">
        <ele>377</ele>
        <time>2019-09-12T11:55:23Z</time>
      </trkpt>
      <trkpt lat="45.69142" lon="5.7384">
        <ele>376.8</ele>
        <time>2019-09-12T11:55:39Z</time>
      </trkpt>
      <trkpt lat="45.69153" lon="5.73853">
        <ele>376.9</ele>
        <time>2019-09-12T11:55:55Z</time>
      </trkpt>
      <trkpt lat="45.69165" lon="5.73863">
        <ele>376.9</ele>
        <time>2019-09-12T11:56:11Z</time>
      </trkpt>
      <trkpt lat="45.6918" lon="5.73871">
        <ele>377.4</ele>
        <time>2019-09-12T11:56:27Z</time>
      </trkpt>
      <trkpt lat="45.69194" lon="5.73876">
        <ele>377.9</ele>
        <time>2019-09-12T11:56:43Z</time>
      </trkpt>
      <trkpt lat="45.6921" lon="5.73881">
        <ele>378.4</ele>
        <time>2019-09-12T11:56:59Z</time>
      </trkpt>
      <trkpt lat="45.69225" lon="5.73885">
        <ele>378.9</ele>
        <time>2019-09-12T11:57:15Z</time>
      </trkpt>
      <trkpt lat="45.69237" lon="5.73892">
        <ele>379.2</ele>
        <time>2019-09-12T11:57:31Z</time>
      </trkpt>
      <trkpt lat="45.69248" lon="5.73902">
        <ele>379.5</ele>
        <time>2019-09-12T11:57:47Z</time>
      </trkpt>
      <trkpt lat="45.69254" lon="5.73919">
        <ele>379.1</ele>
        <time>2019-09-12T11:58:03Z</time>
      </trkpt>
      <trkpt lat="45.69261" lon="5.73937">
        <ele>378.2</ele>
        <time>2019-09-12T11:58:19Z</time>
      </trkpt>
      <trkpt lat="45.69269" lon="5.73955">
        <ele>376.8</ele>
        <time>2019-09-12T11:58:35Z</time>
      </trkpt>
      <trkpt lat="45.69282" lon="5.73968">
        <ele>375.1</ele>
        <time>2019-09-12T11:58:51Z</time>
      </trkpt>
      <trkpt lat="45.69293" lon="5.73979">
        <ele>372.9</ele>
        <time>2019-09-12T11:59:07Z</time>
      </trkpt>
      <trkpt lat="45.69304" lon="5.73991">
        <ele>370.8</ele>
        <time>2019-09-12T11:59:23Z</time>
      </trkpt>
      <trkpt lat="45.69306" lon="5.73998">
        <ele>368.1</ele>
        <time>2019-09-12T11:59:39Z</time>
      </trkpt>
      <trkpt lat="45.69302" lon="5.74003">
        <ele>365.5</ele>
        <time>2019-09-12T11:59:55Z</time>
      </trkpt>
      <trkpt lat="45.69299" lon="5.74014">
        <ele>362.7</ele>
        <time>2019-09-12T12:00:11Z</time>
      </trkpt>
      <trkpt lat="45.69303" lon="5.74026">
        <ele>360.3</ele>
        <time>2019-09-12T12:00:27Z</time>
      </trkpt>
      <trkpt lat="45.6931" lon="5.74037">
        <ele>357.9</ele>
        <time>2019-09-12T12:00:43Z</time>
      </trkpt>
      <trkpt lat="45.6932" lon="5.74046">
        <ele>355.6</ele>
        <time>2019-09-12T12:00:59Z</time>
      </trkpt>
      <trkpt lat="45.6933" lon="5.7405">
        <ele>353.3</ele>
        <time>2019-09-12T12:01:15Z</time>
      </trkpt>
      <trkpt lat="45.69335" lon="5.74051">
        <ele>351.6</ele>
        <time>2019-09-12T12:01:31Z</time>
      </trkpt>
      <trkpt lat="45.69341" lon="5.74052">
        <ele>348.7</ele>
        <time>2019-09-12T12:02:03Z</time>
      </trkpt>
      <trkpt lat="45.69345" lon="5.74057">
        <ele>340</ele>
        <time>2019-09-12T12:04:43Z</time>
      </trkpt>
      <trkpt lat="45.69352" lon="5.74062">
        <ele>339.9</ele>
        <time>2019-09-12T12:04:58Z</time>
      </trkpt>
      <trkpt lat="45.69361" lon="5.74066">
        <ele>339.9</ele>
        <time>2019-09-12T12:05:14Z</time>
      </trkpt>
      <trkpt lat="45.6937" lon="5.74071">
        <ele>340.3</ele>
        <time>2019-09-12T12:05:30Z</time>
      </trkpt>
      <trkpt lat="45.69383" lon="5.74072">
        <ele>340.4</ele>
        <time>2019-09-12T12:05:46Z</time>
      </trkpt>
      <trkpt lat="45.69397" lon="5.74076">
        <ele>340.2</ele>
        <time>2019-09-12T12:06:02Z</time>
      </trkpt>
      <trkpt lat="45.69413" lon="5.74076">
        <ele>339.4</ele>
        <time>2019-09-12T12:06:18Z</time>
      </trkpt>
      <trkpt lat="45.69423" lon="5.74079">
        <ele>338.8</ele>
        <time>2019-09-12T12:06:34Z</time>
      </trkpt>
      <trkpt lat="45.69438" lon="5.7408">
        <ele>337.9</ele>
        <time>2019-09-12T12:06:50Z</time>
      </trkpt>
      <trkpt lat="45.69455" lon="5.74077">
        <ele>336</ele>
        <time>2019-09-12T12:07:06Z</time>
      </trkpt>
      <trkpt lat="45.6947" lon="5.74075">
        <ele>334.9</ele>
        <time>2019-09-12T12:07:22Z</time>
      </trkpt>
      <trkpt lat="45.69485" lon="5.74073">
        <ele>334.1</ele>
        <time>2019-09-12T12:07:38Z</time>
      </trkpt>
      <trkpt lat="45.69502" lon="5.74069">
        <ele>333.2</ele>
        <time>2019-09-12T12:07:54Z</time>
      </trkpt>
      <trkpt lat="45.69519" lon="5.74069">
        <ele>332.4</ele>
        <time>2019-09-12T12:08:10Z</time>
      </trkpt>
      <trkpt lat="45.69534" lon="5.7407">
        <ele>332</ele>
        <time>2019-09-12T12:08:26Z</time>
      </trkpt>
      <trkpt lat="45.69549" lon="5.74072">
        <ele>331.4</ele>
        <time>2019-09-12T12:08:42Z</time>
      </trkpt>
      <trkpt lat="45.69561" lon="5.74073">
        <ele>331.1</ele>
        <time>2019-09-12T12:08:58Z</time>
      </trkpt>
      <trkpt lat="45.69569" lon="5.7407">
        <ele>330.7</ele>
        <time>2019-09-12T12:09:14Z</time>
      </trkpt>
      <trkpt lat="45.69574" lon="5.74069">
        <ele>330.4</ele>
        <time>2019-09-12T12:09:27Z</time>
      </trkpt>
      <trkpt lat="45.69578" lon="5.74073">
        <ele>329.6</ele>
        <time>2019-09-12T12:09:38Z</time>
      </trkpt>
      <trkpt lat="45.69584" lon="5.74066">
        <ele>328.5</ele>
        <time>2019-09-12T12:10:10Z</time>
      </trkpt>
      <trkpt lat="45.69591" lon="5.74069">
        <ele>328.8</ele>
        <time>2019-09-12T12:11:14Z</time>
      </trkpt>
      <trkpt lat="45.69596" lon="5.74072">
        <ele>328.9</ele>
        <time>2019-09-12T12:11:30Z</time>
      </trkpt>
      <trkpt lat="45.69605" lon="5.74076">
        <ele>329</ele>
        <time>2019-09-12T12:11:46Z</time>
      </trkpt>
      <trkpt lat="45.69613" lon="5.74082">
        <ele>328.9</ele>
        <time>2019-09-12T12:12:02Z</time>
      </trkpt>
      <trkpt lat="45.69623" lon="5.74084">
        <ele>328.8</ele>
        <time>2019-09-12T12:12:18Z</time>
      </trkpt>
      <trkpt lat="45.69634" lon="5.74083">
        <ele>328.5</ele>
        <time>2019-09-12T12:12:34Z</time>
      </trkpt>
      <trkpt lat="45.69646" lon="5.74084">
        <ele>328.4</ele>
        <time>2019-09-12T12:12:50Z</time>
      </trkpt>
      <trkpt lat="45.69656" lon="5.74088">
        <ele>327.7</ele>
        <time>2019-09-12T12:13:06Z</time>
      </trkpt>
      <trkpt lat="45.69666" lon="5.74094">
        <ele>326.9</ele>
        <time>2019-09-12T12:13:22Z</time>
      </trkpt>
      <trkpt lat="45.69675" lon="5.74104">
        <ele>325.9</ele>
        <time>2019-09-12T12:13:38Z</time>
      </trkpt>
      <trkpt lat="45.69683" lon="5.74115">
        <ele>324.6</ele>
        <time>2019-09-12T12:13:53Z</time>
      </trkpt>
      <trkpt lat="45.69691" lon="5.74126">
        <ele>322.1</ele>
        <time>2019-09-12T12:14:08Z</time>
      </trkpt>
      <trkpt lat="45.697" lon="5.74137">
        <ele>320</ele>
        <time>2019-09-12T12:14:23Z</time>
      </trkpt>
      <trkpt lat="45.69708" lon="5.74149">
        <ele>318</ele>
        <time>2019-09-12T12:14:38Z</time>
      </trkpt>
      <trkpt lat="45.69718" lon="5.74159">
        <ele>315.2</ele>
        <time>2019-09-12T12:14:53Z</time>
      </trkpt>
      <trkpt lat="45.69724" lon="5.74172">
        <ele>312.2</ele>
        <time>2019-09-12T12:15:03Z</time>
      </trkpt>
      <trkpt lat="45.6973" lon="5.74186">
        <ele>310.2</ele>
        <time>2019-09-12T12:15:13Z</time>
      </trkpt>
      <trkpt lat="45.69737" lon="5.74197">
        <ele>308.7</ele>
        <time>2019-09-12T12:15:23Z</time>
      </trkpt>
      <trkpt lat="45.69745" lon="5.74204">
        <ele>307.4</ele>
        <time>2019-09-12T12:15:33Z</time>
      </trkpt>
      <trkpt lat="45.69752" lon="5.74212">
        <ele>306.8</ele>
        <time>2019-09-12T12:15:43Z</time>
      </trkpt>
      <trkpt lat="45.6976" lon="5.74218">
        <ele>306.4</ele>
        <time>2019-09-12T12:15:54Z</time>
      </trkpt>
      <trkpt lat="45.69767" lon="5.74224">
        <ele>306.1</ele>
        <time>2019-09-12T12:16:04Z</time>
      </trkpt>
      <trkpt lat="45.69773" lon="5.74231">
        <ele>305.9</ele>
        <time>2019-09-12T12:16:14Z</time>
      </trkpt>
      <trkpt lat="45.69778" lon="5.74238">
        <ele>305.7</ele>
        <time>2019-09-12T12:16:24Z</time>
      </trkpt>
      <trkpt lat="45.69782" lon="5.74248">
        <ele>305.6</ele>
        <time>2019-09-12T12:16:34Z</time>
      </trkpt>
      <trkpt lat="45.69786" lon="5.74258">
        <ele>305.3</ele>
        <time>2019-09-12T12:16:44Z</time>
      </trkpt>
      <trkpt lat="45.69788" lon="5.74264">
        <ele>305</ele>
        <time>2019-09-12T12:16:54Z</time>
      </trkpt>
      <trkpt lat="45.69791" lon="5.7427">
        <ele>304.6</ele>
        <time>2019-09-12T12:17:14Z</time>
      </trkpt>
      <trkpt lat="45.69796" lon="5.74271">
        <ele>304.3</ele>
        <time>2019-09-12T12:17:34Z</time>
      </trkpt>
      <trkpt lat="45.69802" lon="5.7427">
        <ele>304.5</ele>
        <time>2019-09-12T12:17:44Z</time>
      </trkpt>
      <trkpt lat="45.69807" lon="5.74268">
        <ele>304.5</ele>
        <time>2019-09-12T12:17:55Z</time>
      </trkpt>
      <trkpt lat="45.69815" lon="5.74267">
        <ele>304.6</ele>
        <time>2019-09-12T12:18:05Z</time>
      </trkpt>
      <trkpt lat="45.69821" lon="5.74268">
        <ele>304.7</ele>
        <time>2019-09-12T12:18:15Z</time>
      </trkpt>
      <trkpt lat="45.69829" lon="5.74267">
        <ele>304.6</ele>
        <time>2019-09-12T12:18:25Z</time>
      </trkpt>
      <trkpt lat="45.69836" lon="5.74267">
        <ele>304.4</ele>
        <time>2019-09-12T12:18:35Z</time>
      </trkpt>
      <trkpt lat="45.69842" lon="5.74265">
        <ele>304.1</ele>
        <time>2019-09-12T12:18:55Z</time>
      </trkpt>
      <trkpt lat="45.69846" lon="5.74261">
        <ele>302.6</ele>
        <time>2019-09-12T12:20:05Z</time>
      </trkpt>
      <trkpt lat="45.69855" lon="5.74259">
        <ele>300.8</ele>
        <time>2019-09-12T12:20:36Z</time>
      </trkpt>
      <trkpt lat="45.69862" lon="5.74258">
        <ele>300.3</ele>
        <time>2019-09-12T12:20:46Z</time>
      </trkpt>
      <trkpt lat="45.69869" lon="5.74255">
        <ele>299.8</ele>
        <time>2019-09-12T12:20:56Z</time>
      </trkpt>
      <trkpt lat="45.69878" lon="5.74251">
        <ele>299.6</ele>
        <time>2019-09-12T12:21:07Z</time>
      </trkpt>
      <trkpt lat="45.69886" lon="5.7425">
        <ele>299.3</ele>
        <time>2019-09-12T12:21:17Z</time>
      </trkpt>
      <trkpt lat="45.69892" lon="5.74253">
        <ele>298.9</ele>
        <time>2019-09-12T12:21:27Z</time>
      </trkpt>
      <trkpt lat="45.69898" lon="5.74258">
        <ele>298.4</ele>
        <time>2019-09-12T12:21:37Z</time>
      </trkpt>
      <trkpt lat="45.69903" lon="5.74263">
        <ele>297.9</ele>
        <time>2019-09-12T12:21:47Z</time>
      </trkpt>
      <trkpt lat="45.69909" lon="5.74267">
        <ele>297.2</ele>
        <time>2019-09-12T12:21:57Z</time>
      </trkpt>
      <trkpt lat="45.69915" lon="5.74267">
        <ele>296.4</ele>
        <time>2019-09-12T12:22:07Z</time>
      </trkpt>
      <trkpt lat="45.69919" lon="5.74265">
        <ele>295.6</ele>
        <time>2019-09-12T12:22:17Z</time>
      </trkpt>
      <trkpt lat="45.69925" lon="5.74257">
        <ele>294.7</ele>
        <time>2019-09-12T12:22:27Z</time>
      </trkpt>
      <trkpt lat="45.69927" lon="5.7425">
        <ele>294</ele>
        <time>2019-09-12T12:22:37Z</time>
      </trkpt>
      <trkpt lat="45.6993" lon="5.74243">
        <ele>292.9</ele>
        <time>2019-09-12T12:22:58Z</time>
      </trkpt>
      <trkpt lat="45.69931" lon="5.74236">
        <ele>292</ele>
        <time>2019-09-12T12:23:18Z</time>
      </trkpt>
      <trkpt lat="45.69931" lon="5.74226">
        <ele>291.8</ele>
        <time>2019-09-12T12:23:28Z</time>
      </trkpt>
      <trkpt lat="45.6993" lon="5.74215">
        <ele>291.5</ele>
        <time>2019-09-12T12:23:38Z</time>
      </trkpt>
      <trkpt lat="45.6993" lon="5.74205">
        <ele>291.5</ele>
        <time>2019-09-12T12:23:48Z</time>
      </trkpt>
      <trkpt lat="45.69931" lon="5.74195">
        <ele>291.8</ele>
        <time>2019-09-12T12:23:58Z</time>
      </trkpt>
      <trkpt lat="45.69934" lon="5.74185">
        <ele>292.3</ele>
        <time>2019-09-12T12:24:08Z</time>
      </trkpt>
      <trkpt lat="45.69939" lon="5.74173">
        <ele>292.5</ele>
        <time>2019-09-12T12:24:18Z</time>
      </trkpt>
      <trkpt lat="45.69945" lon="5.74161">
        <ele>292.6</ele>
        <time>2019-09-12T12:24:29Z</time>
      </trkpt>
      <trkpt lat="45.69948" lon="5.74148">
        <ele>292.9</ele>
        <time>2019-09-12T12:24:39Z</time>
      </trkpt>
      <trkpt lat="45.69949" lon="5.74134">
        <ele>293.1</ele>
        <time>2019-09-12T12:24:49Z</time>
      </trkpt>
      <trkpt lat="45.69949" lon="5.7412">
        <ele>293.3</ele>
        <time>2019-09-12T12:24:59Z</time>
      </trkpt>
      <trkpt lat="45.6995" lon="5.74105">
        <ele>293.7</ele>
        <time>2019-09-12T12:25:09Z</time>
      </trkpt>
      <trkpt lat="45.69949" lon="5.74095">
        <ele>294.2</ele>
        <time>2019-09-12T12:25:19Z</time>
      </trkpt>
      <trkpt lat="45.6995" lon="5.74087">
        <ele>294.9</ele>
        <time>2019-09-12T12:25:29Z</time>
      </trkpt>
      <trkpt lat="45.69955" lon="5.74079">
        <ele>295.9</ele>
        <time>2019-09-12T12:25:39Z</time>
      </trkpt>
      <trkpt lat="45.6996" lon="5.74072">
        <ele>296.9</ele>
        <time>2019-09-12T12:25:49Z</time>
      </trkpt>
      <trkpt lat="45.69967" lon="5.74068">
        <ele>297.7</ele>
        <time>2019-09-12T12:25:59Z</time>
      </trkpt>
      <trkpt lat="45.69975" lon="5.74065">
        <ele>298.1</ele>
        <time>2019-09-12T12:26:10Z</time>
      </trkpt>
      <trkpt lat="45.69984" lon="5.74061">
        <ele>298.4</ele>
        <time>2019-09-12T12:26:20Z</time>
      </trkpt>
      <trkpt lat="45.69993" lon="5.74059">
        <ele>298.7</ele>
        <time>2019-09-12T12:26:30Z</time>
      </trkpt>
      <trkpt lat="45.70002" lon="5.74059">
        <ele>298.9</ele>
        <time>2019-09-12T12:26:40Z</time>
      </trkpt>
      <trkpt lat="45.7001" lon="5.7406">
        <ele>299.1</ele>
        <time>2019-09-12T12:26:50Z</time>
      </trkpt>
      <trkpt lat="45.70019" lon="5.74059">
        <ele>299.2</ele>
        <time>2019-09-12T12:27:00Z</time>
      </trkpt>
      <trkpt lat="45.70025" lon="5.74055">
        <ele>299.4</ele>
        <time>2019-09-12T12:27:10Z</time>
      </trkpt>
      <trkpt lat="45.70034" lon="5.7405">
        <ele>299.4</ele>
        <time>2019-09-12T12:27:20Z</time>
      </trkpt>
      <trkpt lat="45.70042" lon="5.74044">
        <ele>299.6</ele>
        <time>2019-09-12T12:27:30Z</time>
      </trkpt>
      <trkpt lat="45.70053" lon="5.74039">
        <ele>299.9</ele>
        <time>2019-09-12T12:27:41Z</time>
      </trkpt>
      <trkpt lat="45.70061" lon="5.7403">
        <ele>300.2</ele>
        <time>2019-09-12T12:27:51Z</time>
      </trkpt>
      <trkpt lat="45.7007" lon="5.74025">
        <ele>300.5</ele>
        <time>2019-09-12T12:28:01Z</time>
      </trkpt>
      <trkpt lat="45.70079" lon="5.74019">
        <ele>301</ele>
        <time>2019-09-12T12:28:11Z</time>
      </trkpt>
      <trkpt lat="45.70087" lon="5.74015">
        <ele>301.4</ele>
        <time>2019-09-12T12:28:21Z</time>
      </trkpt>
      <trkpt lat="45.70093" lon="5.74012">
        <ele>301.9</ele>
        <time>2019-09-12T12:28:31Z</time>
      </trkpt>
      <trkpt lat="45.70099" lon="5.74009">
        <ele>302.5</ele>
        <time>2019-09-12T12:28:51Z</time>
      </trkpt>
      <trkpt lat="45.70106" lon="5.74004">
        <ele>302.6</ele>
        <time>2019-09-12T12:29:11Z</time>
      </trkpt>
      <trkpt lat="45.70111" lon="5.74003">
        <ele>302.6</ele>
        <time>2019-09-12T12:29:22Z</time>
      </trkpt>
      <trkpt lat="45.70118" lon="5.74002">
        <ele>302.5</ele>
        <time>2019-09-12T12:29:32Z</time>
      </trkpt>
      <trkpt lat="45.70124" lon="5.74001">
        <ele>302</ele>
        <time>2019-09-12T12:29:42Z</time>
      </trkpt>
      <trkpt lat="45.70131" lon="5.74001">
        <ele>301.8</ele>
        <time>2019-09-12T12:29:52Z</time>
      </trkpt>
      <trkpt lat="45.70139" lon="5.74004">
        <ele>301.5</ele>
        <time>2019-09-12T12:30:02Z</time>
      </trkpt>
      <trkpt lat="45.70149" lon="5.74013">
        <ele>301.4</ele>
        <time>2019-09-12T12:30:18Z</time>
      </trkpt>
      <trkpt lat="45.70157" lon="5.74024">
        <ele>301.4</ele>
        <time>2019-09-12T12:30:34Z</time>
      </trkpt>
      <trkpt lat="45.70167" lon="5.74034">
        <ele>301.2</ele>
        <time>2019-09-12T12:30:50Z</time>
      </trkpt>
      <trkpt lat="45.70179" lon="5.74043">
        <ele>300.9</ele>
        <time>2019-09-12T12:31:06Z</time>
      </trkpt>
      <trkpt lat="45.70193" lon="5.74051">
        <ele>300.4</ele>
        <time>2019-09-12T12:31:22Z</time>
      </trkpt>
      <trkpt lat="45.70207" lon="5.74056">
        <ele>299.6</ele>
        <time>2019-09-12T12:31:38Z</time>
      </trkpt>
      <trkpt lat="45.70223" lon="5.74062">
        <ele>298.4</ele>
        <time>2019-09-12T12:31:54Z</time>
      </trkpt>
      <trkpt lat="45.70237" lon="5.74069">
        <ele>297.5</ele>
        <time>2019-09-12T12:32:10Z</time>
      </trkpt>
      <trkpt lat="45.70251" lon="5.74077">
        <ele>296.4</ele>
        <time>2019-09-12T12:32:26Z</time>
      </trkpt>
      <trkpt lat="45.70265" lon="5.74083">
        <ele>295.4</ele>
        <time>2019-09-12T12:32:42Z</time>
      </trkpt>
      <trkpt lat="45.70278" lon="5.7409">
        <ele>294.6</ele>
        <time>2019-09-12T12:32:58Z</time>
      </trkpt>
      <trkpt lat="45.70293" lon="5.74098">
        <ele>293.9</ele>
        <time>2019-09-12T12:33:14Z</time>
      </trkpt>
      <trkpt lat="45.70304" lon="5.74108">
        <ele>292.9</ele>
        <time>2019-09-12T12:33:30Z</time>
      </trkpt>
      <trkpt lat="45.70317" lon="5.7412">
        <ele>291.9</ele>
        <time>2019-09-12T12:33:46Z</time>
      </trkpt>
      <trkpt lat="45.70323" lon="5.74135">
        <ele>290.8</ele>
        <time>2019-09-12T12:34:02Z</time>
      </trkpt>
      <trkpt lat="45.70325" lon="5.74152">
        <ele>289.5</ele>
        <time>2019-09-12T12:34:18Z</time>
      </trkpt>
      <trkpt lat="45.70331" lon="5.74166">
        <ele>288.1</ele>
        <time>2019-09-12T12:34:34Z</time>
      </trkpt>
      <trkpt lat="45.70335" lon="5.7418">
        <ele>287.3</ele>
        <time>2019-09-12T12:34:50Z</time>
      </trkpt>
      <trkpt lat="45.7034" lon="5.74195">
        <ele>286.6</ele>
        <time>2019-09-12T12:35:06Z</time>
      </trkpt>
      <trkpt lat="45.70345" lon="5.74208">
        <ele>285</ele>
        <time>2019-09-12T12:35:22Z</time>
      </trkpt>
      <trkpt lat="45.70341" lon="5.74226">
        <ele>283.8</ele>
        <time>2019-09-12T12:35:37Z</time>
      </trkpt>
      <trkpt lat="45.70343" lon="5.74246">
        <ele>282.1</ele>
        <time>2019-09-12T12:35:53Z</time>
      </trkpt>
      <trkpt lat="45.70342" lon="5.74264">
        <ele>279.5</ele>
        <time>2019-09-12T12:36:09Z</time>
      </trkpt>
      <trkpt lat="45.70343" lon="5.74282">
        <ele>279.1</ele>
        <time>2019-09-12T12:36:24Z</time>
      </trkpt>
      <trkpt lat="45.70349" lon="5.743">
        <ele>279.4</ele>
        <time>2019-09-12T12:36:40Z</time>
      </trkpt>
      <trkpt lat="45.70353" lon="5.7432">
        <ele>278</ele>
        <time>2019-09-12T12:36:56Z</time>
      </trkpt>
      <trkpt lat="45.70357" lon="5.74341">
        <ele>277.7</ele>
        <time>2019-09-12T12:37:12Z</time>
      </trkpt>
      <trkpt lat="45.70357" lon="5.74357">
        <ele>277.4</ele>
        <time>2019-09-12T12:37:28Z</time>
      </trkpt>
      <trkpt lat="45.70353" lon="5.74369">
        <ele>276.8</ele>
        <time>2019-09-12T12:37:43Z</time>
      </trkpt>
      <trkpt lat="45.70354" lon="5.74384">
        <ele>275.8</ele>
        <time>2019-09-12T12:37:59Z</time>
      </trkpt>
      <trkpt lat="45.70352" lon="5.74401">
        <ele>275.1</ele>
        <time>2019-09-12T12:38:15Z</time>
      </trkpt>
      <trkpt lat="45.70348" lon="5.74417">
        <ele>274.1</ele>
        <time>2019-09-12T12:38:30Z</time>
      </trkpt>
      <trkpt lat="45.70343" lon="5.74429">
        <ele>272.9</ele>
        <time>2019-09-12T12:38:46Z</time>
      </trkpt>
      <trkpt lat="45.70337" lon="5.74444">
        <ele>271.9</ele>
        <time>2019-09-12T12:39:01Z</time>
      </trkpt>
      <trkpt lat="45.70335" lon="5.74461">
        <ele>271.1</ele>
        <time>2019-09-12T12:39:17Z</time>
      </trkpt>
      <trkpt lat="45.70335" lon="5.74482">
        <ele>270.3</ele>
        <time>2019-09-12T12:39:33Z</time>
      </trkpt>
      <trkpt lat="45.70337" lon="5.74497">
        <ele>268.9</ele>
        <time>2019-09-12T12:39:48Z</time>
      </trkpt>
      <trkpt lat="45.70342" lon="5.74513">
        <ele>267.2</ele>
        <time>2019-09-12T12:40:04Z</time>
      </trkpt>
      <trkpt lat="45.70347" lon="5.74526">
        <ele>265.8</ele>
        <time>2019-09-12T12:40:20Z</time>
      </trkpt>
      <trkpt lat="45.70349" lon="5.74539">
        <ele>264</ele>
        <time>2019-09-12T12:40:36Z</time>
      </trkpt>
      <trkpt lat="45.70352" lon="5.74556">
        <ele>262.8</ele>
        <time>2019-09-12T12:40:51Z</time>
      </trkpt>
      <trkpt lat="45.70354" lon="5.74572">
        <ele>261.6</ele>
        <time>2019-09-12T12:41:07Z</time>
      </trkpt>
      <trkpt lat="45.70356" lon="5.74592">
        <ele>260.1</ele>
        <time>2019-09-12T12:41:23Z</time>
      </trkpt>
      <trkpt lat="45.7036" lon="5.74612">
        <ele>258</ele>
        <time>2019-09-12T12:41:39Z</time>
      </trkpt>
      <trkpt lat="45.70367" lon="5.74632">
        <ele>256.1</ele>
        <time>2019-09-12T12:41:54Z</time>
      </trkpt>
      <trkpt lat="45.70374" lon="5.74648">
        <ele>253.7</ele>
        <time>2019-09-12T12:42:10Z</time>
      </trkpt>
      <trkpt lat="45.70381" lon="5.74669">
        <ele>251</ele>
        <time>2019-09-12T12:42:26Z</time>
      </trkpt>
      <trkpt lat="45.70387" lon="5.74689">
        <ele>248.9</ele>
        <time>2019-09-12T12:42:42Z</time>
      </trkpt>
      <trkpt lat="45.70391" lon="5.74707">
        <ele>246.7</ele>
        <time>2019-09-12T12:42:57Z</time>
      </trkpt>
      <trkpt lat="45.70391" lon="5.74726">
        <ele>244.4</ele>
        <time>2019-09-12T12:43:13Z</time>
      </trkpt>
      <trkpt lat="45.70391" lon="5.74741">
        <ele>242.6</ele>
        <time>2019-09-12T12:43:29Z</time>
      </trkpt>
      <trkpt lat="45.7039" lon="5.74759">
        <ele>240.8</ele>
        <time>2019-09-12T12:43:45Z</time>
      </trkpt>
      <trkpt lat="45.70389" lon="5.74778">
        <ele>239</ele>
        <time>2019-09-12T12:44:00Z</time>
      </trkpt>
      <trkpt lat="45.70392" lon="5.74795">
        <ele>237.1</ele>
        <time>2019-09-12T12:44:16Z</time>
      </trkpt>
      <trkpt lat="45.70399" lon="5.74811">
        <ele>235.7</ele>
        <time>2019-09-12T12:44:32Z</time>
      </trkpt>
      <trkpt lat="45.70403" lon="5.74827">
        <ele>234.5</ele>
        <time>2019-09-12T12:44:48Z</time>
      </trkpt>
      <trkpt lat="45.70403" lon="5.74842">
        <ele>233.4</ele>
        <time>2019-09-12T12:45:04Z</time>
      </trkpt>
      <trkpt lat="45.70396" lon="5.7485">
        <ele>232.7</ele>
        <time>2019-09-12T12:45:20Z</time>
      </trkpt>
      <trkpt lat="45.70393" lon="5.74859">
        <ele>231.5</ele>
        <time>2019-09-12T12:45:45Z</time>
      </trkpt>
      <trkpt lat="45.70394" lon="5.74865">
        <ele>229.4</ele>
        <time>2019-09-12T12:46:16Z</time>
      </trkpt>
      <trkpt lat="45.70406" lon="5.74859">
        <ele>229.1</ele>
        <time>2019-09-12T12:46:48Z</time>
      </trkpt>
      <trkpt lat="45.70413" lon="5.74867">
        <ele>228</ele>
        <time>2019-09-12T12:47:20Z</time>
      </trkpt>
      <trkpt lat="45.7041" lon="5.74885">
        <ele>226.8</ele>
        <time>2019-09-12T12:47:51Z</time>
      </trkpt>
      <trkpt lat="45.70405" lon="5.74892">
        <ele>226.2</ele>
        <time>2019-09-12T12:48:07Z</time>
      </trkpt>
      <trkpt lat="45.70396" lon="5.74899">
        <ele>225.4</ele>
        <time>2019-09-12T12:48:23Z</time>
      </trkpt>
      <trkpt lat="45.70386" lon="5.74902">
        <ele>224.3</ele>
        <time>2019-09-12T12:48:39Z</time>
      </trkpt>
      <trkpt lat="45.70373" lon="5.74905">
        <ele>223.5</ele>
        <time>2019-09-12T12:48:55Z</time>
      </trkpt>
      <trkpt lat="45.70359" lon="5.74907">
        <ele>222.5</ele>
        <time>2019-09-12T12:49:11Z</time>
      </trkpt>
      <trkpt lat="45.70349" lon="5.74905">
        <ele>221.5</ele>
        <time>2019-09-12T12:49:27Z</time>
      </trkpt>
      <trkpt lat="45.70343" lon="5.74903">
        <ele>221</ele>
        <time>2019-09-12T12:49:42Z</time>
      </trkpt>
      <trkpt lat="45.70337" lon="5.74902">
        <ele>219.8</ele>
        <time>2019-09-12T12:50:02Z</time>
      </trkpt>
    </trkseg>
  </trk>
</gpx>